SondeTracker

Meteorological Radiosondes Database

Operations

Sounding was ended - last measurement: 2022-12-06 01:34:13z

MAP
About Radiosonde

Number: U0550008

Launch Site: Porto Alegre (BR)

Type: RS41

AUX: NO

Frequency: 403.001 MHz

Max Speed: 109 km/h at 11080 m

Average Speed: 37.41 km/h

Max Altitude: 24501 m

Average Ascent Speed: 6.31 m/s

Average Descent Speed: 6.93 m/s

Status: UNKNOWN

Status Changes
Launch Site Type AUX Frequency Status Finder Landing Point Description Changes made by
APRS Statistics

Received Frames: 429

First Frame [UTC]: 2022-12-05 23:33:13z

Last Frame [UTC]: 2022-12-06 01:34:13z

Receivers: PU3IKE-1, PU3XGS-11, PU3XGS-12, PY3UEB-11

Flight Time: 02:01:00 h

Distance From First Measurement: 34.21 km

Nearest City: Gravataí (BR) [18.11 km]

Nearest Hunter: pu3xgs [14.76 km]

Ground Altitude: 252 m

Distance from QTH: 0.00 km

APRS Data
Receiver Number Date/Time [UTC] φ λ Course [°] Speed [km/h] Altitude [m] Description
PU3XGS-11U05500082022-12-06 01:34:13-29.7847-50.937628824291Clb=-4.6m/s t=20.5C h=92.8% p=980.7hPa 403.001 MHz Type=RS41-SGP ser=U0550008 Radiosonde By PU3XGS
PU3XGS-11U05500082022-12-06 01:33:42-29.785-50.93730230329Clb=-4.6m/s t=20.2C h=94.2% p=976.4hPa 403.001 MHz Type=RS41-SGP ser=U0550008 Radiosonde By PU3XGS
PU3XGS-12U05500082022-12-06 01:33:36-29.7852-50.936629731353Clb=-5.2m/s p=973.7hPa t=20.0C h=95.0% 403.000MHz Type=RS41-SGP TxOff=7h33m rdzTTGOsonde
PU3XGS-11U05500082022-12-06 01:33:11-29.7862-50.934229535475Clb=-4.9m/s t=19.3C h=93.3% p=960.1hPa 403.001 MHz Type=RS41-SGP ser=U0550008 Radiosonde By PU3XGS
PU3XGS-12U05500082022-12-06 01:33:06-29.7864-50.933829637493Clb=-4.9m/s p=958.0hPa t=19.1C h=94.0% 403.000MHz Type=RS41-SGP TxOff=7h33m rdzTTGOsonde
PU3XGS-11U05500082022-12-06 01:32:40-29.7875-50.931329833617Clb=-4.6m/s t=18.7C h=87.7% p=944.6hPa 403.001 MHz Type=RS41-SGP ser=U0550008 Radiosonde By PU3XGS
PU3XGS-12U05500082022-12-06 01:32:35-29.7877-50.93129933635Clb=-4.0m/s p=942.5hPa t=18.7C h=86.1% 403.000MHz Type=RS41-SGP TxOff=7h34m rdzTTGOsonde
PU3XGS-11U05500082022-12-06 01:32:09-29.7886-50.928729328750Clb=-4.3m/s t=18.2C h=84.7% p=930.1hPa 403.001 MHz Type=RS41-SGP ser=U0550008 Radiosonde By PU3XGS
PU3XGS-12U05500082022-12-06 01:32:04-29.7887-50.928429230767Clb=-4.3m/s p=928.2hPa t=18.1C h=85.0% 403.000MHz Type=RS41-SGP TxOff=7h35m rdzTTGOsonde
PU3XGS-11U05500082022-12-06 01:31:38-29.7892-50.926428124883Clb=-4.2m/s t=17.3C h=90.8% p=915.8hPa 403.001 MHz Type=RS41-SGP ser=U0550008 Radiosonde By PU3XGS
PU3XGS-12U05500082022-12-06 01:31:34-29.7892-50.926228326897Clb=-4.5m/s p=914.3hPa t=17.2C h=91.0% 403.000MHz Type=RS41-SGP TxOff=7h35m rdzTTGOsonde
PU3XGS-11U05500082022-12-06 01:31:07-29.7894-50.9242263241006Clb=-4.2m/s t=16.5C h=92.6% p=902.9hPa 403.001 MHz Type=RS41-SGP ser=U0550008 Radiosonde By PU3XGS
PU3XGS-12U05500082022-12-06 01:31:03-29.7894-50.9241266241015Clb=-4.3m/s 403.000MHz Type=RS41 rdzTTGOsonde
PY3UEB-11U05500082022-12-06 01:31:00-29.7894-50.9235261241048Clb=-4.1m/s t=16.3C h=92.5% p=898.5hPa 403.001 MHz Type=RS41-SGP ser=U0550008 Radiosonde auto_rx v1.5.9
PU3XGS-11U05500082022-12-06 01:30:36-29.7891-50.9221257241139Clb=-4.3m/s t=15.9C h=91.5% p=889.1hPa 403.001 MHz Type=RS41-SGP ser=U0550008 Radiosonde By PU3XGS
PU3XGS-12U05500082022-12-06 01:30:33-29.7891-50.922257241148Clb=-4.4m/s p=888.1hPa t=15.9C h=91.9% 403.001MHz Type=RS41-SGP TxOff=7h35m rdzTTGOsonde
PY3UEB-11U05500082022-12-06 01:30:30-29.789-50.9217256241166Clb=-4.4m/s t=15.7C h=92.3% p=886.0hPa 403.001 MHz Type=RS41-SGP ser=U0550008 Radiosonde auto_rx v1.5.9
PU3XGS-11U05500082022-12-06 01:30:05-29.7889-50.9201278191276Clb=-4.1m/s t=15.4C h=90.5% p=874.6hPa 403.001 MHz Type=RS41-SGP ser=U0550008 Radiosonde By PU3XGS
PU3XGS-12U05500082022-12-06 01:30:02-29.7889-50.92287201284Clb=-3.9m/s p=873.9hPa t=15.8C h=83.8% 403.001MHz Type=RS41-SGP TxOff=7h36m rdzTTGOsonde
PU3XGS-11U05500082022-12-06 01:29:34-29.7896-50.9182296261412Clb=-4.4m/s t=16.6C h=69.1% p=860.7hPa 403.001 MHz Type=RS41-SGP ser=U0550008 Radiosonde By PU3XGS
PU3XGS-12U05500082022-12-06 01:29:31-29.7896-50.9181298281417Clb=-4.7m/s p=860.5hPa t=16.5C h=69.4% 403.001MHz Type=RS41-SGP TxOff=7h37m rdzTTGOsonde
PY3UEB-11U05500082022-12-06 01:29:30-29.7901-50.9171293281482Clb=-4.7m/s t=16.2C h=70.2% p=854.1hPa 403.001 MHz Type=RS41-SGP ser=U0550008 Radiosonde auto_rx v1.5.9
PU3XGS-11U05500082022-12-06 01:29:03-29.7905-50.9158290311559Clb=-5.0m/s t=15.7C h=71.3% p=846.3hPa 403.001 MHz Type=RS41-SGP ser=U0550008 Radiosonde By PU3XGS
PU3XGS-12U05500082022-12-06 01:29:01-29.7906-50.9157292311565Clb=-5.0m/s p=845.6hPa t=15.6C h=71.4% 403.001MHz Type=RS41-SGP TxOff=7h37m rdzTTGOsonde
PY3UEB-11U05500082022-12-06 01:29:00-29.7906-50.9155290311574Clb=-5.2m/s t=15.6C h=71.5% p=844.6hPa 403.001 MHz Type=RS41-SGP ser=U0550008 Radiosonde auto_rx v1.5.9
PU3XGS-11U05500082022-12-06 01:28:32-29.7914-50.913293351717Clb=-5.1m/s t=14.8C h=67.3% p=830.7hPa 403.001 MHz Type=RS41-SGP ser=U0550008 Radiosonde By PU3XGS
PU3XGS-12U05500082022-12-06 01:28:30-29.7915-50.913293351722Clb=-5.4m/s p=830.2hPa t=14.8C h=67.2% 403.001MHz Type=RS41-SGP TxOff=7h38m rdzTTGOsonde
PU3XGS-11U05500082022-12-06 01:28:01-29.7925-50.9102291301873Clb=-5.0m/s t=14.0C h=58.4% p=815.5hPa 403.001 MHz Type=RS41-SGP ser=U0550008 Radiosonde By PU3XGS
PU3XGS-12U05500082022-12-06 01:27:59-29.7925-50.9102293311874Clb=-5.0m/s p=815.5hPa t=14.0C h=58.4% 403.001MHz Type=RS41-SGP TxOff=7h38m rdzTTGOsonde
PU3XGS-11U05500082022-12-06 01:27:30-29.7933-50.9079296242024Clb=-4.6m/s t=13.5C h=52.9% p=801.2hPa 403.001 MHz Type=RS41-SGP ser=U0550008 Radiosonde By PU3XGS
PU3XGS-12U05500082022-12-06 01:27:29-29.7933-50.9079298262024Clb=-4.6m/s p=801.2hPa t=13.5C h=52.8% 403.001MHz Type=RS41-SGP TxOff=7h39m rdzTTGOsonde
PU3XGS-12U05500082022-12-06 01:26:59-29.7943-50.9057299282162Clb=-4.5m/s p=788.0hPa t=13.9C h=40.8% 403.001MHz Type=RS41-SGP TxOff=7h40m rdzTTGOsonde
PU3XGS-12U05500082022-12-06 01:26:28-29.7953-50.9037295262300Clb=-4.4m/s p=775.3hPa t=13.7C h=31.3% 403.001MHz Type=RS41-SGP TxOff=7h40m rdzTTGOsonde
PY3UEB-11U05500082022-12-06 01:26:00-29.796-50.9017295242424Clb=-3.9m/s t=14.5C h=3.0% p=764.0hPa 403.001 MHz Type=RS41-SGP ser=U0550008 Radiosonde auto_rx v1.5.9
PU3XGS-12U05500082022-12-06 01:25:57-29.796-50.9016302262432Clb=-4.0m/s p=763.1hPa t=14.4C h=3.0% 403.001MHz Type=RS41-SGP TxOff=7h41m rdzTTGOsonde
PU3XGS-11U05500082022-12-06 01:25:56-29.7961-50.9015300242436Clb=-4.3m/s t=14.4C h=3.0% p=762.8hPa 403.001 MHz Type=RS41-SGP ser=U0550008 Radiosonde By PU3XGS
PU3XGS-12U05500082022-12-06 01:25:27-29.7967-50.9002285112562Clb=-4.5m/s p=751.6hPa t=14.6C h=2.1% 403.001MHz Type=RS41-SGP TxOff=7h41m rdzTTGOsonde
PU3XGS-11U05500082022-12-06 01:25:25-29.7967-50.900227992571Clb=-4.6m/s t=14.6C h=1.0% p=750.7hPa 403.001 MHz Type=RS41-SGP ser=U0550008 Radiosonde By PU3XGS
PU3XGS-12U05500082022-12-06 01:24:57-29.7966-50.899525072704Clb=-4.7m/s p=739.0hPa t=13.7C h=0.9% 403.001MHz Type=RS41-SGP TxOff=7h41m rdzTTGOsonde
PU3XGS-11U05500082022-12-06 01:24:54-29.7966-50.899524462723Clb=-4.8m/s t=13.5C h=0.9% p=737.4hPa 403.001 MHz Type=RS41-SGP ser=U0550008 Radiosonde By PU3XGS
PU3XGS-12U05500082022-12-06 01:24:26-29.7965-50.899127062853Clb=-4.8m/s p=726.0hPa t=12.4C h=1.7% 403.001MHz Type=RS41-SGP TxOff=7h42m rdzTTGOsonde
PU3XGS-11U05500082022-12-06 01:24:23-29.7965-50.89926542872Clb=-4.7m/s t=12.3C h=2.7% p=724.5hPa 403.001 MHz Type=RS41-SGP ser=U0550008 Radiosonde By PU3XGS
PU3XGS-12U05500082022-12-06 01:23:56-29.7965-50.898527973003Clb=-5.5m/s p=713.2hPa t=11.4C h=4.1% 403.001MHz Type=RS41-SGP TxOff=7h42m rdzTTGOsonde
PU3XGS-11U05500082022-12-06 01:23:52-29.7965-50.898427463030Clb=-6.3m/s t=11.2C h=4.2% p=710.8hPa 403.001 MHz Type=RS41-SGP ser=U0550008 Radiosonde By PU3XGS
PU3XGS-12U05500082022-12-06 01:23:26-29.7966-50.89829173158Clb=-5.7m/s p=699.9hPa t=10.0C h=9.9% 403.001MHz Type=RS41-SGP TxOff=7h43m rdzTTGOsonde
PU3XGS-12U05500082022-12-06 01:22:56-29.797-50.8972305113309Clb=-5.0m/s p=687.1hPa t=8.8C h=12.0% 403.001MHz Type=RS41-SGP TxOff=7h43m rdzTTGOsonde
PU3XGS-11U05500082022-12-06 01:22:50-29.7971-50.89730593343Clb=-5.2m/s t=8.5C h=12.7% p=684.2hPa 403.001 MHz Type=RS41-SGP ser=U0550008 Radiosonde By PU3XGS
PU3XGS-12U05500082022-12-06 01:22:25-29.7976-50.8964300133462Clb=-5.0m/s p=674.5hPa t=7.4C h=28.7% 403.001MHz Type=RS41-SGP TxOff=7h44m rdzTTGOsonde
PU3XGS-12U05500082022-12-06 01:21:55-29.7982-50.8951300203610Clb=-4.8m/s p=662.8hPa t=7.2C h=20.8% 403.001MHz Type=RS41-SGP TxOff=7h45m rdzTTGOsonde
PU3XGS-11U05500082022-12-06 01:21:48-29.7984-50.8947302193647Clb=-4.6m/s t=6.8C h=26.5% p=659.8hPa 403.001 MHz Type=RS41-SGP ser=U0550008 Radiosonde By PU3XGS
PU3XGS-12U05500082022-12-06 01:21:24-29.799-50.8937300193755Clb=-4.5m/s p=651.3hPa t=5.9C h=28.4% 403.001MHz Type=RS41-SGP TxOff=7h45m rdzTTGOsonde
PU3XGS-12U05500082022-12-06 01:20:54-29.7995-50.8922288203894Clb=-4.7m/s p=640.2hPa t=4.8C h=33.4% 403.001MHz Type=RS41-SGP TxOff=7h46m rdzTTGOsonde
PU3XGS-11U05500082022-12-06 01:20:46-29.7997-50.8916287223936Clb=-4.8m/s t=4.6C h=32.0% p=637.0hPa 403.001 MHz Type=RS41-SGP ser=U0550008 Radiosonde By PU3XGS
PU3XGS-12U05500082022-12-06 01:20:23-29.8-50.8902280244038Clb=-4.7m/s p=629.1hPa t=3.9C h=31.3% 403.001MHz Type=RS41-SGP TxOff=7h46m rdzTTGOsonde
PU3XGS-12U05500082022-12-06 01:19:52-29.8001-50.8881274244181Clb=-4.6m/s p=618.1hPa t=2.7C h=33.0% 403.001MHz Type=RS41-SGP TxOff=7h46m rdzTTGOsonde
PU3XGS-11U05500082022-12-06 01:19:44-29.8001-50.8875267224223Clb=-5.3m/s t=2.3C h=33.5% p=614.9hPa 403.001 MHz Type=RS41-SGP ser=U0550008 Radiosonde By PU3XGS
PU3IKE-1U05500082022-12-06 01:19:30-29.8001-50.8865271224288Clb=-4.7m/s t=1.7C h=33.9% p=609.9hPa 403.001 MHz Type=RS41-SGP RSonde auto_rx v1.5.9
PU3XGS-12U05500082022-12-06 01:19:21-29.8001-50.886271264321Clb=-4.6m/s p=607.4hPa t=1.4C h=33.5% 403.001MHz Type=RS41-SGP TxOff=7h47m rdzTTGOsonde
PY3UEB-11U05500082022-12-06 01:19:00-29.8001-50.8845276224430Clb=-4.9m/s t=0.5C h=29.9% p=599.1hPa 403.001 MHz Type=RS41-SGP ser=U0550008 Radiosonde auto_rx v1.5.9
PU3XGS-12U05500082022-12-06 01:18:51-29.8002-50.884273224470Clb=-5.0m/s p=596.3hPa t=0.1C h=30.6% 403.001MHz Type=RS41-SGP TxOff=7h47m rdzTTGOsonde
PU3XGS-11U05500082022-12-06 01:18:42-29.8003-50.8833277204517Clb=-4.9m/s t=-0.3C h=30.8% p=592.8hPa 403.001 MHz Type=RS41-SGP ser=U0550008 Radiosonde By PU3XGS
PU3IKE-1U05500082022-12-06 01:18:30-29.8004-50.8826284194574Clb=-4.9m/s t=-0.9C h=37.0% p=588.5hPa 403.001 MHz Type=RS41-SGP RSonde auto_rx v1.5.9
PU3XGS-12U05500082022-12-06 01:18:20-29.8005-50.8821288204618Clb=-4.6m/s p=585.4hPa t=-1.3C h=42.2% 403.001MHz Type=RS41-SGP TxOff=7h48m rdzTTGOsonde
PU3IKE-1U05500082022-12-06 01:18:00-29.801-50.8812319174719Clb=-4.9m/s t=-2.0C h=48.8% p=577.9hPa 403.001 MHz Type=RS41-SGP RSonde auto_rx v1.5.9
PU3XGS-12U05500082022-12-06 01:17:51-29.8013-50.8809321194768Clb=-4.6m/s p=574.6hPa t=-2.1C h=42.1% 403.001MHz Type=RS41-SGP TxOff=7h48m rdzTTGOsonde
PU3XGS-11U05500082022-12-06 01:17:40-29.8017-50.8806324224815Clb=-4.8m/s t=-2.2C h=33.6% p=571.0hPa 403.001 MHz Type=RS41-SGP ser=U0550008 Radiosonde By PU3XGS
PU3IKE-1U05500082022-12-06 01:17:30-29.8022-50.8802328204859Clb=-4.2m/s t=-2.5C h=32.9% p=568.0hPa 403.001 MHz Type=RS41-SGP RSonde auto_rx v1.5.9
PU3XGS-12U05500082022-12-06 01:17:20-29.8027-50.8799331224904Clb=-4.5m/s p=564.9hPa t=-2.8C h=33.0% 403.001MHz Type=RS41-SGP TxOff=7h49m rdzTTGOsonde
PY3UEB-11U05500082022-12-06 01:17:00-29.8037-50.8792328224990Clb=-4.7m/s t=-3.4C h=30.6% p=558.8hPa 403.001 MHz Type=RS41-SGP ser=U0550008 Radiosonde auto_rx v1.5.9
PU3XGS-12U05500082022-12-06 01:16:49-29.8042-50.8789335205035Clb=-5.0m/s p=555.5hPa t=-3.7C h=29.6% 403.001MHz Type=RS41-SGP TxOff=7h50m rdzTTGOsonde
PU3XGS-11U05500082022-12-06 01:16:38-29.8047-50.8786325175092Clb=-5.0m/s t=-4.1C h=31.0% p=551.5hPa 403.001 MHz Type=RS41-SGP ser=U0550008 Radiosonde By PU3XGS
PU3IKE-1U05500082022-12-06 01:16:30-29.805-50.8783322155136Clb=-4.9m/s t=-4.3C h=27.3% p=548.4hPa 403.001 MHz Type=RS41-SGP RSonde auto_rx v1.5.9
PU3XGS-12U05500082022-12-06 01:16:18-29.8053-50.8781324175186Clb=-5.0m/s p=545.1hPa t=-4.7C h=27.6% 403.001MHz Type=RS41-SGP TxOff=7h50m rdzTTGOsonde
PU3XGS-11U05500082022-12-06 01:16:06-29.8057-50.8778333135246Clb=-5.0m/s t=-5.2C h=28.5% p=540.9hPa 403.001 MHz Type=RS41-SGP ser=U0550008 Radiosonde By PU3XGS
PY3UEB-11U05500082022-12-06 01:16:00-29.8059-50.8776319135283Clb=-5.3m/s t=-5.6C h=29.1% p=538.4hPa 403.001 MHz Type=RS41-SGP ser=U0550008 Radiosonde auto_rx v1.5.9
PU3XGS-12U05500082022-12-06 01:15:48-29.8062-50.8774326115340Clb=-4.9m/s p=534.5hPa t=-6.1C h=27.8% 403.001MHz Type=RS41-SGP TxOff=7h51m rdzTTGOsonde
PU3IKE-1U05500082022-12-06 01:15:30-29.8067-50.877234695435Clb=-4.5m/s t=-7.0C h=29.0% p=527.9hPa 403.001 MHz Type=RS41-SGP RSonde auto_rx v1.5.9
PU3XGS-12U05500082022-12-06 01:15:20-29.807-50.877134595495Clb=-5.2m/s p=524.0hPa t=-7.6C h=29.9% 403.001MHz Type=RS41-SGP TxOff=7h51m rdzTTGOsonde
PU3XGS-11U05500082022-12-06 01:15:04-29.8074-50.877225155571Clb=-5.1m/s t=-8.3C h=31.0% p=518.9hPa 403.001 MHz Type=RS41-SGP ser=U0550008 Radiosonde By PU3XGS
PU3IKE-1U05500082022-12-06 01:15:00-29.8075-50.877319195597Clb=-5.2m/s t=-8.2C h=23.7% p=517.0hPa 403.001 MHz Type=RS41-SGP RSonde auto_rx v1.5.9
PU3XGS-12U05500082022-12-06 01:14:51-29.8081-50.877518265653Clb=-5.0m/s p=513.5hPa t=-7.3C h=6.8% 403.001MHz Type=RS41-SGP TxOff=7h52m rdzTTGOsonde
PU3IKE-1U05500082022-12-06 01:14:30-29.8093-50.877812285745Clb=-5.1m/s t=-7.7C h=6.3% p=507.4hPa 403.001 MHz Type=RS41-SGP RSonde auto_rx v1.5.9
PU3XGS-12U05500082022-12-06 01:14:21-29.8102-50.878121285813Clb=-5.2m/s p=503.1hPa t=-8.3C h=8.2% 403.001MHz Type=RS41-SGP TxOff=7h52m rdzTTGOsonde
PU3XGS-11U05500082022-12-06 01:14:02-29.8112-50.878624285891Clb=-4.8m/s t=-9.0C h=8.9% p=498.0hPa 403.001 MHz Type=RS41-SGP ser=U0550008 Radiosonde By PU3XGS
PU3IKE-1U05500082022-12-06 01:14:00-29.8113-50.878625285900Clb=-5.0m/s t=-9.1C h=8.9% p=497.4hPa 403.001 MHz Type=RS41-SGP RSonde auto_rx v1.5.9
PU3XGS-12U05500082022-12-06 01:13:51-29.8122-50.879130285971Clb=-5.2m/s p=492.8hPa t=-9.7C h=9.3% 403.001MHz Type=RS41-SGP TxOff=7h52m rdzTTGOsonde
PU3IKE-1U05500082022-12-06 01:13:30-29.8132-50.879834306052Clb=-5.0m/s t=-10.5C h=9.2% p=487.8hPa 403.001 MHz Type=RS41-SGP RSonde auto_rx v1.5.9
PU3XGS-12U05500082022-12-06 01:13:20-29.814-50.880641306128Clb=-5.0m/s p=483.0hPa t=-11.1C h=9.2% 403.001MHz Type=RS41-SGP TxOff=7h53m rdzTTGOsonde
PU3IKE-1U05500082022-12-06 01:13:00-29.8148-50.881549286204Clb=-5.1m/s t=-11.8C h=9.2% p=478.2hPa 403.001 MHz Type=RS41-SGP RSonde auto_rx v1.5.9
PU3XGS-12U05500082022-12-06 01:12:49-29.8156-50.882658306284Clb=-5.2m/s p=473.3hPa t=-12.5C h=9.3% 403.001MHz Type=RS41-SGP TxOff=7h53m rdzTTGOsonde
PY3UEB-11U05500082022-12-06 01:12:30-29.8161-50.883764306355Clb=-5.1m/s t=-13.1C h=9.4% p=468.8hPa 403.001 MHz Type=RS41-SGP ser=U0550008 Radiosonde auto_rx v1.5.9
PU3XGS-12U05500082022-12-06 01:12:16-29.8166-50.88571306444Clb=-5.1m/s p=463.5hPa t=-13.6C h=6.5% 403.001MHz Type=RS41-SGP TxOff=7h54m rdzTTGOsonde
PY3UEB-11U05500082022-12-06 01:12:00-29.817-50.886169316511Clb=-5.4m/s t=-13.7C h=3.6% p=459.3hPa 403.001 MHz Type=RS41-SGP ser=U0550008 Radiosonde auto_rx v1.5.9
PU3XGS-11U05500082022-12-06 01:11:58-29.817-50.886369316522Clb=-5.1m/s t=-13.7C h=3.4% p=458.8hPa 403.001 MHz Type=RS41-SGP ser=U0550008 Radiosonde By PU3XGS
PU3XGS-12U05500082022-12-06 01:11:45-29.8176-50.887768356605Clb=-4.9m/s p=453.7hPa t=-14.4C h=3.2% 403.001MHz Type=RS41-SGP TxOff=7h55m rdzTTGOsonde
PY3UEB-11U05500082022-12-06 01:11:30-29.818-50.888867376666Clb=-5.2m/s t=-14.9C h=3.4% p=450.0hPa 403.001 MHz Type=RS41-SGP ser=U0550008 Radiosonde auto_rx v1.5.9
PU3XGS-12U05500082022-12-06 01:11:14-29.8186-50.890973396766Clb=-5.3m/s p=444.1hPa t=-15.7C h=3.9% 403.001MHz Type=RS41-SGP TxOff=7h55m rdzTTGOsonde
PY3UEB-11U05500082022-12-06 01:11:00-29.8189-50.892172396825Clb=-5.1m/s t=-16.1C h=4.0% p=440.7hPa 403.001 MHz Type=RS41-SGP ser=U0550008 Radiosonde auto_rx v1.5.9
PU3XGS-11U05500082022-12-06 01:10:56-29.819-50.892574396847Clb=-5.6m/s t=-16.3C h=4.1% p=439.5hPa 403.001 MHz Type=RS41-SGP ser=U0550008 Radiosonde By PU3XGS
PU3XGS-12U05500082022-12-06 01:10:43-29.8195-50.894379416932Clb=-5.3m/s p=434.5hPa t=-17.0C h=3.9% 403.001MHz Type=RS41-SGP TxOff=7h56m rdzTTGOsonde
PU3IKE-1U05500082022-12-06 01:10:30-29.8196-50.895782446991Clb=-5.2m/s t=-17.4C h=3.6% p=431.2hPa 403.001 MHz Type=RS41-SGP RSonde auto_rx v1.5.9
PU3XGS-12U05500082022-12-06 01:10:12-29.8199-50.898484487098Clb=-5.6m/s p=425.1hPa t=-17.8C h=2.5% 403.001MHz Type=RS41-SGP TxOff=7h56m rdzTTGOsonde
PY3UEB-11U05500082022-12-06 01:10:00-29.82-50.899683467146Clb=-5.4m/s t=-18.1C h=2.2% p=422.3hPa 403.001 MHz Type=RS41-SGP ser=U0550008 Radiosonde auto_rx v1.5.9
PU3XGS-11U05500082022-12-06 01:09:54-29.8201-50.900484487179Clb=-5.6m/s t=-18.3C h=2.3% p=420.5hPa 403.001 MHz Type=RS41-SGP ser=U0550008 Radiosonde By PU3XGS
PU3XGS-12U05500082022-12-06 01:09:43-29.8203-50.902687527261Clb=-5.5m/s p=415.9hPa t=-19.0C h=2.5% 403.001MHz Type=RS41-SGP TxOff=7h57m rdzTTGOsonde
PY3UEB-11U05500082022-12-06 01:09:30-29.8204-50.904287547316Clb=-5.9m/s t=-19.4C h=2.4% p=412.9hPa 403.001 MHz Type=RS41-SGP ser=U0550008 Radiosonde auto_rx v1.5.9
PU3XGS-11U05500082022-12-06 01:09:22-29.8204-50.905187547349Clb=-5.7m/s t=-19.6C h=2.5% p=411.1hPa 403.001 MHz Type=RS41-SGP ser=U0550008 Radiosonde By PU3XGS
PU3XGS-12U05500082022-12-06 01:09:12-29.8205-50.907590577431Clb=-5.7m/s p=406.5hPa t=-20.2C h=2.3% 403.001MHz Type=RS41-SGP TxOff=7h58m rdzTTGOsonde
PU3IKE-1U05500082022-12-06 01:09:00-29.8205-50.908891567475Clb=-5.6m/s t=-20.5C h=2.3% p=404.1hPa 403.001 MHz Type=RS41-SGP RSonde auto_rx v1.5.9
PU3XGS-11U05500082022-12-06 01:08:52-29.8205-50.910390567525Clb=-5.3m/s t=-20.8C h=2.3% p=401.5hPa 403.001 MHz Type=RS41-SGP ser=U0550008 Radiosonde By PU3XGS
PU3XGS-12U05500082022-12-06 01:08:39-29.8204-50.912693597603Clb=-5.8m/s p=397.2hPa t=-21.3C h=2.2% 403.001MHz Type=RS41-SGP TxOff=7h58m rdzTTGOsonde
PU3IKE-1U05500082022-12-06 01:08:30-29.8203-50.913894577642Clb=-5.3m/s t=-21.6C h=2.1% p=395.2hPa 403.001 MHz Type=RS41-SGP RSonde auto_rx v1.5.9
PU3XGS-12U05500082022-12-06 01:08:05-29.82-50.91897637779Clb=-5.5m/s p=388.2hPa t=-22.4C h=2.2% 403.001MHz Type=RS41-SGP TxOff=7h58m rdzTTGOsonde
PU3IKE-1U05500082022-12-06 01:08:00-29.8199-50.919197637814Clb=-5.5m/s t=-22.7C h=2.3% p=386.4hPa 403.001 MHz Type=RS41-SGP RSonde auto_rx v1.5.9
PU3XGS-12U05500082022-12-06 01:07:35-29.8193-50.923799697942Clb=-5.8m/s p=379.3hPa t=-23.6C h=2.3% 403.001MHz Type=RS41-SGP TxOff=7h58m rdzTTGOsonde
PU3IKE-1U05500082022-12-06 01:07:30-29.8192-50.924999707977Clb=-5.7m/s t=-23.6C h=2.0% p=377.5hPa 403.001 MHz Type=RS41-SGP RSonde auto_rx v1.5.9
PU3XGS-11U05500082022-12-06 01:07:18-29.8188-50.927498728046Clb=-5.9m/s t=-23.9C h=2.1% p=373.9hPa 403.001 MHz Type=RS41-SGP ser=U0550008 Radiosonde By PU3XGS
PU3XGS-12U05500082022-12-06 01:07:05-29.8185-50.929899728116Clb=-5.8m/s p=370.5hPa t=-23.3C h=1.9% 403.001MHz Type=RS41-SGP TxOff=7h59m rdzTTGOsonde
PU3IKE-1U05500082022-12-06 01:07:00-29.8183-50.931196708150Clb=-6.0m/s t=-23.5C h=1.9% p=368.7hPa 403.001 MHz Type=RS41-SGP RSonde auto_rx v1.5.9
PU3XGS-12U05500082022-12-06 01:06:43-29.8179-50.935895658296Clb=-6.0m/s p=361.4hPa t=-24.1C h=1.8% 403.001MHz Type=RS41-SGP TxOff=8h0m rdzTTGOsonde
PY3UEB-11U05500082022-12-06 01:06:30-29.8179-50.936793638325Clb=-5.6m/s t=-24.2C h=1.8% p=360.0hPa 403.001 MHz Type=RS41-SGP ser=U0550008 Radiosonde auto_rx v1.5.9
PU3XGS-11U05500082022-12-06 01:06:16-29.8179-50.939290618408Clb=-5.9m/s t=-24.6C h=1.7% p=356.0hPa 403.001 MHz Type=RS41-SGP ser=U0550008 Radiosonde By PU3XGS
PU3IKE-1U05500082022-12-06 01:06:00-29.8179-50.94286618504Clb=-5.8m/s t=-24.8C h=1.6% p=351.3hPa 403.001 MHz Type=RS41-SGP RSonde auto_rx v1.5.9
PU3IKE-1U05500082022-12-06 01:05:30-29.818-50.947390638692Clb=-6.3m/s t=-26.1C h=1.6% p=342.4hPa 403.001 MHz Type=RS41-SGP RSonde auto_rx v1.5.9
PU3XGS-11U05500082022-12-06 01:05:14-29.818-50.9588618783Clb=-6.2m/s t=-26.7C h=1.5% p=338.0hPa 403.001 MHz Type=RS41-SGP ser=U0550008 Radiosonde By PU3XGS
PU3IKE-1U05500082022-12-06 01:05:00-29.818-50.952689618876Clb=-6.3m/s t=-27.3C h=1.5% p=333.7hPa 403.001 MHz Type=RS41-SGP RSonde auto_rx v1.5.9
PU3IKE-1U05500082022-12-06 01:04:30-29.8181-50.958189679063Clb=-6.1m/s t=-28.7C h=1.6% p=325.1hPa 403.001 MHz Type=RS41-SGP RSonde auto_rx v1.5.9
PU3XGS-11U05500082022-12-06 01:04:12-29.8182-50.961488699170Clb=-6.5m/s t=-29.7C h=1.7% p=320.4hPa 403.001 MHz Type=RS41-SGP ser=U0550008 Radiosonde By PU3XGS
PY3UEB-11U05500082022-12-06 01:04:00-29.8184-50.968887709399Clb=-6.5m/s t=-31.4C h=2.0% p=310.2hPa 403.001 MHz Type=RS41-SGP ser=U0550008 Radiosonde auto_rx v1.5.9
PU3XGS-11U05500082022-12-06 01:03:10-29.8187-50.97484699568Clb=-6.5m/s t=-32.4C h=2.0% p=302.9hPa 403.001 MHz Type=RS41-SGP ser=U0550008 Radiosonde By PU3XGS
PU3IKE-1U05500082022-12-06 01:03:00-29.8191-50.976981729659Clb=-6.7m/s t=-33.0C h=2.1% p=299.0hPa 403.001 MHz Type=RS41-SGP RSonde auto_rx v1.5.9
PU3IKE-1U05500082022-12-06 01:02:30-29.82-50.982178679830Clb=-6.7m/s t=-34.1C h=2.2% p=291.8hPa 403.001 MHz Type=RS41-SGP RSonde auto_rx v1.5.9
PU3XGS-11U05500082022-12-06 01:02:08-29.8208-50.986577749974Clb=-6.8m/s t=-34.6C h=2.1% p=285.9hPa 403.001 MHz Type=RS41-SGP ser=U0550008 Radiosonde By PU3XGS
PU3IKE-1U05500082022-12-06 01:02:00-29.8212-50.9882767810027Clb=-7.0m/s t=-35.0C h=2.2% p=283.8hPa 403.001 MHz Type=RS41-SGP RSonde auto_rx v1.5.9
PU3XGS-11U05500082022-12-06 01:01:36-29.8225-50.9934718510179Clb=-6.7m/s t=-36.0C h=2.2% p=277.7hPa 403.001 MHz Type=RS41-SGP ser=U0550008 Radiosonde By PU3XGS
PY3UEB-11U05500082022-12-06 01:01:30-29.8231-50.9953698510231Clb=-6.4m/s t=-36.0C h=2.1% p=275.3hPa 403.001 MHz Type=RS41-SGP ser=U0550008 Radiosonde auto_rx v1.5.9
PY3UEB-11U05500082022-12-06 01:01:00-29.8259-51.0021609310414Clb=-6.2m/s t=-36.7C h=1.9% p=268.5hPa 403.001 MHz Type=RS41-SGP ser=U0550008 Radiosonde auto_rx v1.5.9
PU3XGS-11U05500082022-12-06 01:00:34-29.8287-51.0084639310575Clb=-6.4m/s t=-36.9C h=1.7% p=262.3hPa 403.001 MHz Type=RS41-SGP ser=U0550008 Radiosonde By PU3XGS
PU3IKE-1U05500082022-12-06 01:00:30-29.8305-51.0123598910683Clb=-6.6m/s t=-37.6C h=1.7% p=258.3hPa 403.001 MHz Type=RS41-SGP RSonde auto_rx v1.5.9
PU3IKE-1U05500082022-12-06 01:00:00-29.8324-51.0161629110791Clb=-6.4m/s t=-37.9C h=1.5% p=254.2hPa 403.001 MHz Type=RS41-SGP RSonde auto_rx v1.5.9
PU3XGS-11U05500082022-12-06 00:59:32-29.8355-51.0227609410973Clb=-6.8m/s t=-39.1C h=1.6% p=247.7hPa 403.001 MHz Type=RS41-SGP ser=U0550008 Radiosonde By PU3XGS
PU3IKE-1U05500082022-12-06 00:59:30-29.8359-51.0234589410993Clb=-6.5m/s t=-39.2C h=1.6% p=247.0hPa 403.001 MHz Type=RS41-SGP RSonde auto_rx v1.5.9
PY3UEB-11U05500082022-12-06 00:59:00-29.8401-51.03125810011210Clb=-6.8m/s t=-41.3C h=1.9% p=239.2hPa 403.001 MHz Type=RS41-SGP ser=U0550008 Radiosonde auto_rx v1.5.9
PU3IKE-1U05500082022-12-06 00:58:30-29.8445-51.03885410711423Clb=-7.1m/s t=-43.1C h=2.2% p=231.8hPa 403.001 MHz Type=RS41-SGP RSonde auto_rx v1.5.9
PU3IKE-1U05500082022-12-06 00:58:00-29.8489-51.0462559411628Clb=-7.2m/s t=-43.9C h=2.0% p=224.8hPa 403.001 MHz Type=RS41-SGP RSonde auto_rx v1.5.9
PU3IKE-1U05500082022-12-06 00:57:30-29.8522-51.0517568311806Clb=-6.9m/s t=-44.7C h=2.0% p=219.0hPa 403.001 MHz Type=RS41-SGP RSonde auto_rx v1.5.9
PU3XGS-11U05500082022-12-06 00:57:28-29.8523-51.0519568311813Clb=-6.8m/s t=-44.8C h=2.0% p=218.8hPa 403.001 MHz Type=RS41-SGP ser=U0550008 Radiosonde By PU3XGS
PY3UEB-11U05500082022-12-06 00:57:00-29.8553-51.0579638112013Clb=-7.2m/s t=-46.2C h=2.2% p=212.2hPa 403.001 MHz Type=RS41-SGP ser=U0550008 Radiosonde auto_rx v1.5.9
PU3IKE-1U05500082022-12-06 00:56:30-29.8577-51.0647718912224Clb=-7.0m/s t=-47.7C h=2.3% p=205.7hPa 403.001 MHz Type=RS41-SGP RSonde auto_rx v1.5.9
PU3XGS-11U05500082022-12-06 00:56:26-29.8579-51.0655738912246Clb=-7.5m/s t=-47.9C h=2.3% p=205.0hPa 403.001 MHz Type=RS41-SGP ser=U0550008 Radiosonde By PU3XGS
PY3UEB-11U05500082022-12-06 00:56:00-29.8597-51.0718718312431Clb=-7.1m/s t=-49.2C h=2.5% p=199.4hPa 403.001 MHz Type=RS41-SGP ser=U0550008 Radiosonde auto_rx v1.5.9
PY3UEB-11U05500082022-12-06 00:55:30-29.8613-51.0786818012653Clb=-7.4m/s t=-50.6C h=2.4% p=192.7hPa 403.001 MHz Type=RS41-SGP ser=U0550008 Radiosonde auto_rx v1.5.9
PU3XGS-11U05500082022-12-06 00:55:24-29.8614-51.0797848012689Clb=-7.2m/s t=-50.8C h=2.4% p=191.6hPa 403.001 MHz Type=RS41-SGP ser=U0550008 Radiosonde By PU3XGS
PY3UEB-11U05500082022-12-06 00:55:00-29.8618-51.0857838512873Clb=-7.5m/s t=-51.7C h=2.2% p=186.3hPa 403.001 MHz Type=RS41-SGP ser=U0550008 Radiosonde auto_rx v1.5.9
PY3UEB-11U05500082022-12-06 00:54:30-29.8631-51.0935769113099Clb=-7.5m/s t=-53.0C h=2.2% p=179.9hPa 403.001 MHz Type=RS41-SGP ser=U0550008 Radiosonde auto_rx v1.5.9
PU3XGS-11U05500082022-12-06 00:54:22-29.8635-51.0951769113143Clb=-7.5m/s t=-53.2C h=2.2% p=178.8hPa 403.001 MHz Type=RS41-SGP ser=U0550008 Radiosonde By PU3XGS
PU3IKE-1U05500082022-12-06 00:54:00-29.8648-51.1006709113304Clb=-7.1m/s t=-54.6C h=2.3% p=174.3hPa 403.001 MHz Type=RS41-SGP RSonde auto_rx v1.5.9
PU3IKE-1U05500082022-12-06 00:53:30-29.8678-51.107547613529Clb=-7.8m/s t=-55.3C h=2.1% p=168.3hPa 403.001 MHz Type=RS41-SGP RSonde auto_rx v1.5.9
PU3XGS-11U05500082022-12-06 00:53:20-29.8689-51.1087507013605Clb=-7.7m/s t=-55.5C h=2.1% p=166.3hPa 403.001 MHz Type=RS41-SGP ser=U0550008 Radiosonde By PU3XGS
PY3UEB-11U05500082022-12-06 00:53:00-29.8713-51.1116416713759Clb=-7.9m/s t=-56.0C h=2.0% p=162.4hPa 403.001 MHz Type=RS41-SGP ser=U0550008 Radiosonde auto_rx v1.5.9
PU3IKE-1U05500082022-12-06 00:52:30-29.8747-51.1146304314008Clb=-8.4m/s t=-57.0C h=2.2% p=156.2hPa 403.001 MHz Type=RS41-SGP RSonde auto_rx v1.5.9
PU3XGS-12U05500082022-12-06 00:52:24-29.8758-51.1153273714106Clb=-8.3m/s p=153.8hPa t=-57.3C h=2.3% 403.001MHz Type=RS41-SGP TxOff=8h14m rdzTTGOsonde
PY3UEB-11U05500082022-12-06 00:52:00-29.8772-51.1161303114246Clb=-8.3m/s t=-58.3C h=2.6% p=150.4hPa 403.001 MHz Type=RS41-SGP ser=U0550008 Radiosonde auto_rx v1.5.9
PU3XGS-12U05500082022-12-06 00:51:45-29.8782-51.1167303114363Clb=-8.6m/s p=147.6hPa t=-59.1C h=2.9% 403.001MHz Type=RS41-SGP TxOff=8h15m rdzTTGOsonde
PY3UEB-11U05500082022-12-06 00:51:30-29.8794-51.1173233314499Clb=-8.9m/s t=-60.0C h=3.3% p=144.4hPa 403.001 MHz Type=RS41-SGP ser=U0550008 Radiosonde auto_rx v1.5.9
PU3XGS-12U05500082022-12-06 00:51:14-29.8805-51.1179263014628Clb=-8.2m/s p=141.5hPa t=-61.0C h=3.8% 403.001MHz Type=RS41-SGP TxOff=8h15m rdzTTGOsonde
PY3UEB-11U05500082022-12-06 00:51:00-29.8815-51.1185292214766Clb=-8.3m/s t=-62.0C h=4.2% p=138.5hPa 403.001 MHz Type=RS41-SGP ser=U0550008 Radiosonde auto_rx v1.5.9
PU3XGS-11U05500082022-12-06 00:50:44-29.8823-51.1189292214896Clb=-9.0m/s t=-62.9C h=4.7% p=135.6hPa 403.001 MHz Type=RS41-SGP ser=U0550008 Radiosonde By PU3XGS
PY3UEB-11U05500082022-12-06 00:50:30-29.8829-51.1193301515017Clb=-8.6m/s t=-63.8C h=5.1% p=132.9hPa 403.001 MHz Type=RS41-SGP ser=U0550008 Radiosonde auto_rx v1.5.9
PU3XGS-12U05500082022-12-06 00:50:15-29.8834-51.1196341315150Clb=-9.2m/s p=130.1hPa t=-65.0C h=5.8% 403.001MHz Type=RS41-SGP TxOff=8h16m rdzTTGOsonde
PU3IKE-1U05500082022-12-06 00:50:00-29.8843-51.1203351115408Clb=-9.2m/s t=-67.1C h=6.8% p=124.7hPa 403.001 MHz Type=RS41-SGP RSonde auto_rx v1.5.9
PU3XGS-12U05500082022-12-06 00:49:43-29.8843-51.1203371315427Clb=-8.9m/s p=124.3hPa t=-67.2C h=6.8% 403.001MHz Type=RS41-SGP TxOff=8h16m rdzTTGOsonde
PU3XGS-11U05500082022-12-06 00:49:42-29.8844-51.1203361115445Clb=-9.1m/s t=-67.4C h=6.9% p=123.9hPa 403.001 MHz Type=RS41-SGP ser=U0550008 Radiosonde By PU3XGS
PY3UEB-11U05500082022-12-06 00:49:30-29.8847-51.1205181115555Clb=-9.2m/s t=-68.1C h=7.2% p=121.7hPa 403.001 MHz Type=RS41-SGP ser=U0550008 Radiosonde auto_rx v1.5.9
PY3UEB-11U05500082022-12-06 00:49:00-29.8858-51.120921515840Clb=-9.6m/s t=-70.3C h=8.2% p=116.0hPa 403.001 MHz Type=RS41-SGP ser=U0550008 Radiosonde auto_rx v1.5.9
PU3XGS-11U05500082022-12-06 00:48:40-29.8864-51.12093511116018Clb=-9.4m/s t=-71.0C h=8.6% p=112.7hPa 403.001 MHz Type=RS41-SGP ser=U0550008 Radiosonde By PU3XGS
PY3UEB-11U05500082022-12-06 00:48:30-29.8866-51.12080416111Clb=-9.5m/s t=-71.0C h=8.8% p=110.8hPa 403.001 MHz Type=RS41-SGP ser=U0550008 Radiosonde auto_rx v1.5.9
PY3UEB-11U05500082022-12-06 00:48:00-29.8869-51.121255716399Clb=-9.5m/s t=-71.2C h=8.9% p=105.6hPa 403.001 MHz Type=RS41-SGP ser=U0550008 Radiosonde auto_rx v1.5.9
PU3XGS-11U05500082022-12-06 00:47:38-29.8869-51.121766916613Clb=-9.6m/s t=-71.9C h=9.0% p=101.9hPa 403.001 MHz Type=RS41-SGP ser=U0550008 Radiosonde By PU3XGS
PY3UEB-11U05500082022-12-06 00:47:30-29.887-51.121945916702Clb=-10.2m/s t=-72.2C h=9.1% p=100.4hPa 403.001 MHz Type=RS41-SGP ser=U0550008 Radiosonde auto_rx v1.5.9
PY3UEB-11U05500082022-12-06 00:47:00-29.8874-51.122723917011Clb=-10.1m/s t=-72.5C h=8.6% p=95.3hPa 403.001 MHz Type=RS41-SGP ser=U0550008 Radiosonde auto_rx v1.5.9
PU3XGS-11U05500082022-12-06 00:46:36-29.8877-51.1227328717237Clb=-10.1m/s t=-73.4C h=8.7% p=91.7hPa 403.001 MHz Type=RS41-SGP ser=U0550008 Radiosonde By PU3XGS
PY3UEB-11U05500082022-12-06 00:46:30-29.8878-51.1226327917299Clb=-10.3m/s t=-73.8C h=8.9% p=90.7hPa 403.001 MHz Type=RS41-SGP ser=U0550008 Radiosonde auto_rx v1.5.9
PY3UEB-11U05500082022-12-06 00:46:00-29.8885-51.12192731117611Clb=-11.0m/s t=-75.6C h=8.7% p=86.0hPa 403.001 MHz Type=RS41-SGP ser=U0550008 Radiosonde auto_rx v1.5.9
PU3XGS-11U05500082022-12-06 00:45:34-29.8879-51.12082161717892Clb=-10.7m/s t=-77.0C h=8.5% p=81.9hPa 403.001 MHz Type=RS41-SGP ser=U0550008 Radiosonde By PU3XGS
PY3UEB-11U05500082022-12-06 00:45:30-29.8878-51.12072201317936Clb=-11.1m/s t=-77.2C h=8.6% p=81.3hPa 403.001 MHz Type=RS41-SGP ser=U0550008 Radiosonde auto_rx v1.5.9
PU3IKE-1U05500082022-12-06 00:45:00-29.8888-51.11953013018405Clb=-11.8m/s t=-76.9C h=7.4% p=75.0hPa 403.001 MHz Type=RS41-SGP RSonde auto_rx v1.5.9
PU3XGS-11U05500082022-12-06 00:44:32-29.8891-51.11752692218660Clb=-11.9m/s t=-75.7C h=6.1% p=71.8hPa 403.001 MHz Type=RS41-SGP ser=U0550008 Radiosonde By PU3XGS
PU3IKE-1U05500082022-12-06 00:44:30-29.8891-51.11732572218697Clb=-11.6m/s t=-75.8C h=6.1% p=71.3hPa 403.001 MHz Type=RS41-SGP RSonde auto_rx v1.5.9
PY3UEB-11U05500082022-12-06 00:44:00-29.8896-51.11563103519016Clb=-12.1m/s t=-74.0C h=5.6% p=67.5hPa 403.001 MHz Type=RS41-SGP ser=U0550008 Radiosonde auto_rx v1.5.9
PU3IKE-1U05500082022-12-06 00:43:30-29.8906-51.11282623919338Clb=-12.3m/s t=-70.7C h=3.9% p=63.9hPa 403.001 MHz Type=RS41-SGP RSonde auto_rx v1.5.9
PU3XGS-11U05500082022-12-06 00:42:58-29.8907-51.11062923319736Clb=-11.1m/s t=-71.0C h=3.7% p=59.7hPa 403.001 MHz Type=RS41-SGP ser=U0550008 Radiosonde By PU3XGS
PU3IKE-1U05500082022-12-06 00:42:30-29.8917-51.10773053320027Clb=-9.7m/s t=-70.6C h=3.5% p=56.9hPa 403.001 MHz Type=RS41-SGP RSonde auto_rx v1.5.9
PU3XGS-11U05500082022-12-06 00:41:56-29.8918-51.10442544320394Clb=-8.3m/s t=-68.6C h=3.0% p=53.5hPa 403.001 MHz Type=RS41-SGP ser=U0550008 Radiosonde By PU3XGS
PU3IKE-1U05500082022-12-06 00:40:00-29.8911-51.09422333921595Clb=-10.3m/s t=-64.9C h=1.9% p=43.9hPa 403.001 MHz Type=RS41-SGP RSonde auto_rx v1.5.9
PU3XGS-11U05500082022-12-06 00:39:52-29.891-51.09382582421641Clb=-12.0m/s t=-64.8C h=1.9% p=43.5hPa 403.001 MHz Type=RS41-SGP ser=U0550008 Radiosonde By PU3XGS
PY3UEB-11U05500082022-12-06 00:39:30-29.8911-51.0922622221990Clb=-11.6m/s t=-64.0C h=1.7% p=41.1hPa 403.001 MHz Type=RS41-SGP ser=U0550008 Radiosonde auto_rx v1.5.9
PU3XGS-11U05500082022-12-06 00:38:50-29.8908-51.08972343022305Clb=-11.9m/s t=-64.6C h=1.8% p=39.0hPa 403.001 MHz Type=RS41-SGP ser=U0550008 Radiosonde By PU3XGS
PU3IKE-1U05500082022-12-06 00:38:30-29.8903-51.08822422022666Clb=-11.3m/s t=-62.5C h=1.5% p=36.9hPa 403.001 MHz Type=RS41-SGP RSonde auto_rx v1.5.9
PY3UEB-11U05500082022-12-06 00:38:00-29.8901-51.0872652222889Clb=-11.7m/s t=-61.8C h=1.5% p=35.6hPa 403.001 MHz Type=RS41-SGP ser=U0550008 Radiosonde auto_rx v1.5.9
PU3XGS-11U05500082022-12-06 00:37:48-29.8901-51.08632401923036Clb=-13.2m/s t=-61.0C h=1.4% p=34.7hPa 403.001 MHz Type=RS41-SGP ser=U0550008 Radiosonde By PU3XGS
PU3IKE-1U05500082022-12-06 00:37:30-29.89-51.0855216923271Clb=-12.7m/s t=-61.1C h=1.4% p=-1.0hPa 403.001 MHz Type=RS41-SGP RSonde auto_rx v1.5.9
PU3IKE-1U05500082022-12-06 00:37:00-29.8902-51.0842973923657Clb=-14.1m/s t=-61.1C h=1.4% p=-1.0hPa 403.001 MHz Type=RS41-SGP RSonde auto_rx v1.5.9
PU3XGS-11U05500082022-12-06 00:36:46-29.8904-51.0832823523811Clb=-13.7m/s t=-60.0C h=1.3% p=30.7hPa 403.001 MHz Type=RS41-SGP ser=U0550008 Radiosonde By PU3XGS
PU3IKE-1U05500082022-12-06 00:36:30-29.8906-51.08152884324026Clb=-13.5m/s t=-59.5C h=1.2% p=-1.0hPa 403.001 MHz Type=RS41-SGP RSonde auto_rx v1.5.9
PU3IKE-1U05500082022-12-06 00:36:00-29.8905-51.0792342624480Clb=-19.6m/s t=-273.0C h=-1.0% p=-1.0hPa 403.001 MHz Type=RS41-SGP RSonde auto_rx v1.5.9
PU3XGS-12U05500082022-12-06 00:35:57-29.8905-51.07892322624501Clb=-1.1m/s p=27.4hPa t=-57.9C h=1.1% 403.001MHz Type=RS41-SGP rdzTTGOsonde
PU3XGS-11U05500082022-12-06 00:35:44-29.8899-51.0782513124424Clb=5.4m/s t=-58.6C h=1.1% p=27.7hPa 403.001 MHz Type=RS41-SGP ser=U0550008 Radiosonde By PU3XGS
PU3IKE-1U05500082022-12-06 00:35:30-29.8894-51.07692503024340Clb=7.2m/s t=-273.0C h=-1.0% p=-1.0hPa 403.001 MHz Type=RS41-SGP RSonde auto_rx v1.5.9
PU3IKE-1U05500082022-12-06 00:35:00-29.8892-51.07462772824171Clb=6.2m/s t=-273.0C h=-1.0% p=-1.0hPa 403.001 MHz Type=RS41-SGP RSonde auto_rx v1.5.9
PU3XGS-12U05500082022-12-06 00:34:57-29.8892-51.07452792824161Clb=5.1m/s p=29.0hPa t=-59.2C h=1.2% 403.001MHz Type=RS41-SGP rdzTTGOsonde
PU3IKE-1U05500082022-12-06 00:34:30-29.8897-51.07172833323994Clb=7.0m/s t=-273.0C h=-1.0% p=-1.0hPa 403.001 MHz Type=RS41-SGP RSonde auto_rx v1.5.9
PU3XGS-12U05500082022-12-06 00:34:29-29.8898-51.07142943323976Clb=6.2m/s p=29.8hPa t=-60.1C h=1.2% 403.001MHz Type=RS41-SGP rdzTTGOsonde
PU3XGS-11U05500082022-12-06 00:34:10-29.8901-51.072813023880Clb=6.0m/s t=-60.4C h=1.2% p=30.3hPa 403.001 MHz Type=RS41-SGP ser=U0550008 Radiosonde By PU3XGS
PU3IKE-1U05500082022-12-06 00:34:00-29.8903-51.06892822023794Clb=6.7m/s t=-273.0C h=-1.0% p=-1.0hPa 403.001 MHz Type=RS41 RSonde auto_rx v1.5.9
PU3XGS-12U05500082022-12-06 00:33:56-29.8903-51.06892832023794Clb=6.7m/s p=30.7hPa t=-60.6C h=1.3% 403.001MHz Type=RS41-SGP rdzTTGOsonde
PU3XGS-12U05500082022-12-06 00:33:25-29.891-51.06683042423607Clb=6.3m/s p=31.6hPa t=-61.7C h=1.4% 403.001MHz Type=RS41-SGP rdzTTGOsonde
PU3XGS-11U05500082022-12-06 00:33:08-29.8913-51.06582491323496Clb=7.1m/s t=-61.1C h=1.3% p=32.2hPa 403.001 MHz Type=RS41-SGP ser=U0550008 Radiosonde By PU3XGS
PY3UEB-11U05500082022-12-06 00:33:00-29.8912-51.0653200923404Clb=6.3m/s t=-60.6C h=1.2% p=32.7hPa 403.001 MHz Type=RS41-SGP ser=U0550008 Radiosonde auto_rx v1.5.9
PY3UEB-11U05500082022-12-06 00:32:30-29.8909-51.0648242723259Clb=6.1m/s t=-60.9C h=1.3% p=33.5hPa 403.001 MHz Type=RS41-SGP ser=U0550008 Radiosonde auto_rx v1.5.9
PU3XGS-11U05500082022-12-06 00:32:06-29.8904-51.06382511723116Clb=6.0m/s t=-61.2C h=1.3% p=34.2hPa 403.001 MHz Type=RS41-SGP ser=U0550008 Radiosonde By PU3XGS
PY3UEB-11U05500082022-12-06 00:32:00-29.8904-51.06292812423026Clb=5.3m/s t=-61.2C h=1.3% p=34.8hPa 403.001 MHz Type=RS41-SGP ser=U0550008 Radiosonde auto_rx v1.5.9
PY3UEB-11U05500082022-12-06 00:31:30-29.8908-51.05972382222765Clb=6.1m/s t=-62.7C h=1.5% p=36.2hPa 403.001 MHz Type=RS41-SGP ser=U0550008 Radiosonde auto_rx v1.5.9
PU3XGS-11U05500082022-12-06 00:31:04-29.8907-51.05942471922731Clb=5.2m/s t=-62.7C h=1.4% p=36.4hPa 403.001 MHz Type=RS41-SGP ser=U0550008 Radiosonde By PU3XGS
PY3UEB-11U05500082022-12-06 00:31:00-29.8906-51.05922301722709Clb=5.2m/s t=-62.7C h=1.4% p=36.5hPa 403.001 MHz Type=RS41-SGP ser=U0550008 Radiosonde auto_rx v1.5.9
PY3UEB-11U05500082022-12-06 00:30:30-29.8902-51.0582462222568Clb=4.0m/s t=-63.5C h=1.5% p=37.4hPa 403.001 MHz Type=RS41-SGP ser=U0550008 Radiosonde auto_rx v1.5.9
PU3XGS-11U05500082022-12-06 00:30:02-29.889-51.05672252022406Clb=6.6m/s t=-64.1C h=1.6% p=38.4hPa 403.001 MHz Type=RS41-SGP ser=U0550008 Radiosonde By PU3XGS
PY3UEB-11U05500082022-12-06 00:30:00-29.888-51.05532552622274Clb=4.6m/s t=-64.5C h=1.7% p=39.2hPa 403.001 MHz Type=RS41-SGP ser=U0550008 Radiosonde auto_rx v1.5.9
PY3UEB-11U05500082022-12-06 00:29:30-29.8878-51.05452443122223Clb=6.0m/s t=-64.6C h=1.6% p=39.5hPa 403.001 MHz Type=RS41-SGP ser=U0550008 Radiosonde auto_rx v1.5.9
PY3UEB-11U05500082022-12-06 00:29:00-29.8879-51.0522722222050Clb=6.9m/s t=-63.9C h=1.7% p=40.7hPa 403.001 MHz Type=RS41-SGP ser=U0550008 Radiosonde auto_rx v1.5.9
PY3UEB-11U05500082022-12-06 00:28:30-29.8879-51.04982682221871Clb=6.6m/s t=-64.8C h=1.8% p=41.9hPa 403.001 MHz Type=RS41-SGP ser=U0550008 Radiosonde auto_rx v1.5.9
PY3UEB-11U05500082022-12-06 00:28:00-29.8882-51.04822671321693Clb=5.8m/s t=-64.8C h=2.0% p=43.1hPa 403.001 MHz Type=RS41-SGP ser=U0550008 Radiosonde auto_rx v1.5.9
PU3XGS-11U05500082022-12-06 00:27:58-29.8882-51.04822671321693Clb=5.8m/s t=-64.8C h=2.0% p=43.1hPa 403.001 MHz Type=RS41-SGP ser=U0550008 Radiosonde By PU3XGS
PY3UEB-11U05500082022-12-06 00:27:30-29.8883-51.04662572221534Clb=5.7m/s t=-66.0C h=2.2% p=44.2hPa 403.001 MHz Type=RS41-SGP ser=U0550008 Radiosonde auto_rx v1.5.9
PY3UEB-11U05500082022-12-06 00:27:00-29.8887-51.0453111121362Clb=4.4m/s t=-66.2C h=2.3% p=45.5hPa 403.001 MHz Type=RS41-SGP ser=U0550008 Radiosonde auto_rx v1.5.9
PU3XGS-11U05500082022-12-06 00:26:56-29.8887-51.0449271721333Clb=5.1m/s t=-66.2C h=2.3% p=45.7hPa 403.001 MHz Type=RS41-SGP ser=U0550008 Radiosonde By PU3XGS
PY3UEB-11U05500082022-12-06 00:26:30-29.8884-51.04352413021190Clb=6.4m/s t=-66.2C h=2.5% p=46.9hPa 403.001 MHz Type=RS41-SGP ser=U0550008 Radiosonde auto_rx v1.5.9
PU3XGS-11U05500082022-12-06 00:26:24-29.8882-51.04322332421164Clb=4.2m/s t=-66.2C h=2.4% p=47.0hPa 403.001 MHz Type=RS41-SGP ser=U0550008 Radiosonde By PU3XGS
PY3UEB-11U05500082022-12-06 00:26:00-29.8874-51.04132363521013Clb=5.3m/s t=-67.6C h=2.8% p=48.2hPa 403.001 MHz Type=RS41-SGP ser=U0550008 Radiosonde auto_rx v1.5.9
PY3UEB-11U05500082022-12-06 00:25:30-29.8867-51.03842743920839Clb=4.1m/s t=-68.0C h=3.1% p=49.6hPa 403.001 MHz Type=RS41-SGP ser=U0550008 Radiosonde auto_rx v1.5.9
PU3XGS-11U05500082022-12-06 00:25:22-29.8868-51.0382714420816Clb=5.9m/s t=-68.0C h=3.1% p=49.8hPa 403.001 MHz Type=RS41-SGP ser=U0550008 Radiosonde By PU3XGS
PU3IKE-1U05500082022-12-06 00:25:00-29.8877-51.03463143720646Clb=6.7m/s t=-273.0C h=-1.0% p=-1.0hPa 403.001 MHz Type=RS41 RSonde auto_rx v1.5.9
PY3UEB-11U05500082022-12-06 00:24:30-29.8887-51.03242753120490Clb=7.0m/s t=-68.8C h=3.6% p=52.6hPa 403.001 MHz Type=RS41-SGP ser=U0550008 Radiosonde auto_rx v1.5.9
PU3XGS-11U05500082022-12-06 00:24:20-29.8886-51.03172653720449Clb=7.0m/s t=-69.3C h=4.1% p=52.9hPa 403.001 MHz Type=RS41-SGP ser=U0550008 Radiosonde By PU3XGS
PU3IKE-1U05500082022-12-06 00:24:00-29.8882-51.02952704320342Clb=6.8m/s t=-273.0C h=-1.0% p=-1.0hPa 403.001 MHz Type=RS41 RSonde auto_rx v1.5.9
PY3UEB-11U05500082022-12-06 00:23:30-29.8879-51.02582795220180Clb=6.4m/s t=-70.0C h=4.4% p=55.4hPa 403.001 MHz Type=RS41-SGP ser=U0550008 Radiosonde auto_rx v1.5.9
PU3XGS-11U05500082022-12-06 00:23:18-29.8882-51.02442913920119Clb=6.2m/s t=-70.7C h=4.6% p=55.9hPa 403.001 MHz Type=RS41-SGP ser=U0550008 Radiosonde By PU3XGS
PU3IKE-1U05500082022-12-06 00:23:00-29.89-51.02043022819896Clb=6.1m/s t=-273.0C h=-1.0% p=-1.0hPa 403.001 MHz Type=RS41 RSonde auto_rx v1.5.9
PY3UEB-11U05500082022-12-06 00:22:30-29.8902-51.022883119869Clb=6.6m/s t=-70.8C h=5.3% p=58.3hPa 403.001 MHz Type=RS41-SGP ser=U0550008 Radiosonde auto_rx v1.5.9
PU3XGS-11U05500082022-12-06 00:22:16-29.8906-51.0192942419794Clb=5.7m/s t=-70.9C h=5.4% p=59.1hPa 403.001 MHz Type=RS41-SGP ser=U0550008 Radiosonde By PU3XGS
PY3UEB-11U05500082022-12-06 00:22:00-29.8911-51.01783002619706Clb=5.6m/s t=-70.9C h=5.8% p=60.0hPa 403.001 MHz Type=RS41-SGP ser=U0550008 Radiosonde auto_rx v1.5.9
PY3UEB-11U05500082022-12-06 00:21:30-29.8915-51.01582772219548Clb=6.1m/s t=-71.0C h=6.2% p=61.6hPa 403.001 MHz Type=RS41-SGP ser=U0550008 Radiosonde auto_rx v1.5.9
PU3XGS-11U05500082022-12-06 00:21:14-29.8912-51.01462572819461Clb=5.0m/s t=-71.3C h=7.4% p=62.5hPa 403.001 MHz Type=RS41-SGP ser=U0550008 Radiosonde By PU3XGS
PY3UEB-11U05500082022-12-06 00:21:00-29.891-51.01312663919385Clb=5.3m/s t=-71.1C h=7.4% p=63.3hPa 403.001 MHz Type=RS41-SGP ser=U0550008 Radiosonde auto_rx v1.5.9
PY3UEB-11U05500082022-12-06 00:20:30-29.8912-51.00952895219221Clb=4.5m/s t=-72.4C h=8.7% p=65.1hPa 403.001 MHz Type=RS41-SGP ser=U0550008 Radiosonde auto_rx v1.5.9
PU3XGS-11U05500082022-12-06 00:20:12-29.8921-51.00752994319125Clb=5.6m/s t=-72.9C h=9.3% p=66.1hPa 403.001 MHz Type=RS41-SGP ser=U0550008 Radiosonde By PU3XGS
PY3UEB-11U05500082022-12-06 00:20:00-29.8928-51.00643183919060Clb=4.7m/s t=-73.5C h=9.6% p=66.8hPa 403.001 MHz Type=RS41-SGP ser=U0550008 Radiosonde auto_rx v1.5.9
PY3UEB-11U05500082022-12-06 00:19:30-29.8942-51.00422881918898Clb=5.7m/s t=-75.3C h=11.0% p=68.7hPa 403.001 MHz Type=RS41-SGP ser=U0550008 Radiosonde auto_rx v1.5.9
PU3XGS-11U05500082022-12-06 00:19:10-29.8944-51.00322642418806Clb=4.8m/s t=-75.4C h=11.2% p=69.8hPa 403.001 MHz Type=RS41-SGP ser=U0550008 Radiosonde By PU3XGS
PY3UEB-11U05500082022-12-06 00:19:00-29.8942-51.0022612618717Clb=6.4m/s t=-75.9C h=11.6% p=70.9hPa 403.001 MHz Type=RS41-SGP ser=U0550008 Radiosonde auto_rx v1.5.9
PY3UEB-11U05500082022-12-06 00:18:30-29.8938-51.00052642218600Clb=4.0m/s t=-75.3C h=10.9% p=72.4hPa 403.001 MHz Type=RS41-SGP ser=U0550008 Radiosonde auto_rx v1.5.9
PY3UEB-11U05500082022-12-06 00:18:00-29.8934-50.99752744318444Clb=5.4m/s t=-75.9C h=11.3% p=74.3hPa 403.001 MHz Type=RS41-SGP ser=U0550008 Radiosonde auto_rx v1.5.9
PU3XGS-11U05500082022-12-06 00:17:36-29.8941-50.99522963018317Clb=5.6m/s t=-76.0C h=11.0% p=76.0hPa 403.001 MHz Type=RS41-SGP ser=U0550008 Radiosonde By PU3XGS
PY3UEB-11U05500082022-12-06 00:17:30-29.8944-50.99473102418271Clb=5.1m/s t=-75.9C h=10.7% p=76.5hPa 403.001 MHz Type=RS41-SGP ser=U0550008 Radiosonde auto_rx v1.5.9
PY3UEB-11U05500082022-12-06 00:17:00-29.8955-50.99383561718113Clb=5.1m/s t=-76.6C h=10.4% p=78.7hPa 403.001 MHz Type=RS41-SGP ser=U0550008 Radiosonde auto_rx v1.5.9
PU3XGS-11U05500082022-12-06 00:16:34-29.8959-50.993630417976Clb=5.3m/s t=-76.8C h=10.2% p=80.5hPa 403.001 MHz Type=RS41-SGP ser=U0550008 Radiosonde By PU3XGS
PY3UEB-11U05500082022-12-06 00:16:30-29.8959-50.9936310717956Clb=5.4m/s t=-76.7C h=10.1% p=80.8hPa 403.001 MHz Type=RS41-SGP ser=U0550008 Radiosonde auto_rx v1.5.9
PU3XGS-12U05500082022-12-06 00:16:28-29.8958-50.9934259717892Clb=4.2m/s p=81.7hPa t=-76.4C h=9.8% 403.001MHz Type=RS41-SGP rdzTTGOsonde
PU3IKE-1U05500082022-12-06 00:16:00-29.895-50.99272321717732Clb=4.6m/s t=-75.9C h=9.4% p=84.1hPa 403.001 MHz Type=RS41-SGP RSonde auto_rx v1.5.9
PU3XGS-12U05500082022-12-06 00:15:47-29.895-50.99272331717732Clb=4.6m/s p=84.1hPa t=-75.9C h=9.5% 403.001MHz Type=RS41-SGP rdzTTGOsonde
PU3XGS-11U05500082022-12-06 00:15:32-29.8946-50.99222801117645Clb=3.8m/s t=-75.3C h=9.0% p=85.3hPa 403.001 MHz Type=RS41-SGP ser=U0550008 Radiosonde By PU3XGS
PY3UEB-11U05500082022-12-06 00:15:30-29.8947-50.99212651517630Clb=4.5m/s t=-75.2C h=8.9% p=85.5hPa 403.001 MHz Type=RS41-SGP ser=U0550008 Radiosonde auto_rx v1.5.9
PU3XGS-12U05500082022-12-06 00:15:20-29.8945-50.99162822217564Clb=6.3m/s p=86.5hPa t=-74.8C h=9.0% 403.001MHz Type=RS41-SGP rdzTTGOsonde
PY3UEB-11U05500082022-12-06 00:15:00-29.8946-50.99133331317436Clb=10.1m/s t=-74.4C h=8.5% p=88.4hPa 403.001 MHz Type=RS41-SGP ser=U0550008 Radiosonde auto_rx v1.5.9
PU3XGS-12U05500082022-12-06 00:14:45-29.895-50.99113361317345Clb=2.8m/s p=89.7hPa t=-74.0C h=8.3% 403.001MHz Type=RS41-SGP rdzTTGOsonde
PU3XGS-11U05500082022-12-06 00:14:30-29.8954-50.991352917236Clb=8.8m/s t=-73.4C h=8.1% p=91.3hPa 403.001 MHz Type=RS41-SGP ser=U0550008 Radiosonde By PU3XGS
PY3UEB-11U05500082022-12-06 00:14:00-29.896-50.99118617038Clb=3.4m/s t=-72.3C h=7.7% p=94.5hPa 403.001 MHz Type=RS41-SGP ser=U0550008 Radiosonde auto_rx v1.5.9
PU3XGS-11U05500082022-12-06 00:13:28-29.8964-50.9917741316841Clb=4.3m/s t=-72.2C h=7.9% p=97.7hPa 403.001 MHz Type=RS41-SGP ser=U0550008 Radiosonde By PU3XGS
PY3UEB-11U05500082022-12-06 00:13:00-29.8969-50.992449616649Clb=4.6m/s t=-72.1C h=7.9% p=100.9hPa 403.001 MHz Type=RS41-SGP ser=U0550008 Radiosonde auto_rx v1.5.9
PY3UEB-11U05500082022-12-06 00:12:30-29.8968-50.99357216458Clb=8.1m/s t=-71.1C h=6.7% p=104.2hPa 403.001 MHz Type=RS41-SGP ser=U0550008 Radiosonde auto_rx v1.5.9
PU3XGS-11U05500082022-12-06 00:12:26-29.8969-50.99327716440Clb=2.5m/s t=-71.2C h=6.8% p=104.6hPa 403.001 MHz Type=RS41-SGP ser=U0550008 Radiosonde By PU3XGS
PU3IKE-1U05500082022-12-06 00:12:00-29.8972-50.9933336716274Clb=7.3m/s t=-71.6C h=6.6% p=107.6hPa 403.001 MHz Type=RS41-SGP RSonde auto_rx v1.5.9
PY3UEB-11U05500082022-12-06 00:11:30-29.8978-50.99313401316077Clb=7.5m/s t=-71.6C h=6.2% p=111.2hPa 403.001 MHz Type=RS41-SGP ser=U0550008 Radiosonde auto_rx v1.5.9
PU3XGS-11U05500082022-12-06 00:11:24-29.898-50.993191116030Clb=10.0m/s t=-71.4C h=5.9% p=112.0hPa 403.001 MHz Type=RS41-SGP ser=U0550008 Radiosonde By PU3XGS
PU3IKE-1U05500082022-12-06 00:11:00-29.8991-50.993152015877Clb=7.5m/s t=-70.6C h=5.5% p=115.0hPa 403.001 MHz Type=RS41-SGP RSonde auto_rx v1.5.9
PU3IKE-1U05500082022-12-06 00:10:30-29.9002-50.9935151315693Clb=4.3m/s t=-69.2C h=4.9% p=118.7hPa 403.001 MHz Type=RS41-SGP RSonde auto_rx v1.5.9
PU3XGS-11U05500082022-12-06 00:10:22-29.9005-50.9936101315643Clb=9.4m/s t=-68.8C h=4.6% p=119.7hPa 403.001 MHz Type=RS41-SGP ser=U0550008 Radiosonde By PU3XGS
PU3IKE-1U05500082022-12-06 00:10:00-29.9013-50.994321115430Clb=2.8m/s t=-67.4C h=4.2% p=124.0hPa 403.001 MHz Type=RS41-SGP RSonde auto_rx v1.5.9
PY3UEB-11U05500082022-12-06 00:09:30-29.9021-50.9943151715287Clb=5.2m/s t=-66.2C h=3.6% p=126.9hPa 403.001 MHz Type=RS41-SGP ser=U0550008 Radiosonde auto_rx v1.5.9
PU3XGS-11U05500082022-12-06 00:09:20-29.9024-50.9944191515228Clb=5.1m/s t=-65.7C h=3.5% p=128.1hPa 403.001 MHz Type=RS41-SGP ser=U0550008 Radiosonde By PU3XGS
PU3IKE-1U05500082022-12-06 00:09:00-29.9032-50.9948211515088Clb=10.1m/s t=-64.3C h=3.0% p=131.1hPa 403.001 MHz Type=RS41-SGP RSonde auto_rx v1.5.9
PU3IKE-1U05500082022-12-06 00:08:30-29.9041-50.9953221514898Clb=10.1m/s t=-62.6C h=2.6% p=135.2hPa 403.001 MHz Type=RS41-SGP RSonde auto_rx v1.5.9
PU3XGS-11U05500082022-12-06 00:08:18-29.9046-50.9956331914821Clb=4.4m/s t=-61.9C h=2.5% p=137.0hPa 403.001 MHz Type=RS41-SGP ser=U0550008 Radiosonde By PU3XGS
PU3IKE-1U05500082022-12-06 00:08:00-29.9054-50.9961272414696Clb=2.5m/s t=-60.8C h=2.3% p=139.7hPa 403.001 MHz Type=RS41-SGP RSonde auto_rx v1.5.9
PY3UEB-11U05500082022-12-06 00:07:30-29.9074-50.9971272814477Clb=10.2m/s t=-59.1C h=2.1% p=144.6hPa 403.001 MHz Type=RS41-SGP ser=U0550008 Radiosonde auto_rx v1.5.9
PU3XGS-11U05500082022-12-06 00:07:16-29.908-50.9976232614405Clb=7.9m/s t=-58.4C h=2.0% p=146.2hPa 403.001 MHz Type=RS41-SGP ser=U0550008 Radiosonde By PU3XGS
PY3UEB-11U05500082022-12-06 00:07:00-29.909-50.9981253314305Clb=3.5m/s t=-57.9C h=1.9% p=148.7hPa 403.001 MHz Type=RS41-SGP ser=U0550008 Radiosonde auto_rx v1.5.9
PY3UEB-11U05500082022-12-06 00:06:30-29.9116-50.9996333714109Clb=9.3m/s t=-56.9C h=1.9% p=153.4hPa 403.001 MHz Type=RS41-SGP ser=U0550008 Radiosonde auto_rx v1.5.9
PU3IKE-1U05500082022-12-06 00:06:00-29.9143-51.0014355013926Clb=3.5m/s t=-56.2C h=2.1% p=157.9hPa 403.001 MHz Type=RS41-SGP RSonde auto_rx v1.5.9
PU3XGS-11U05500082022-12-06 00:05:42-29.9162-51.0028374613812Clb=9.6m/s t=-56.1C h=2.1% p=160.6hPa 403.001 MHz Type=RS41-SGP ser=U0550008 Radiosonde By PU3XGS
PU3IKE-1U05500082022-12-06 00:05:30-29.9177-51.0045437013718Clb=4.4m/s t=-56.2C h=2.4% p=163.1hPa 403.001 MHz Type=RS41-SGP RSonde auto_rx v1.5.9
PY3UEB-11U05500082022-12-06 00:05:00-29.9215-51.0097577613524Clb=4.1m/s t=-55.4C h=2.4% p=168.0hPa 403.001 MHz Type=RS41-SGP ser=U0550008 Radiosonde auto_rx v1.5.9
PU3XGS-11U05500082022-12-06 00:04:40-29.9234-51.0135658113397Clb=5.6m/s t=-54.7C h=2.4% p=171.3hPa 403.001 MHz Type=RS41-SGP ser=U0550008 Radiosonde By PU3XGS
PU3XGS-12U05500082022-12-06 00:04:03-29.9265-51.0224768913158Clb=8.3m/s p=178.0hPa t=-53.3C h=2.4% 403.001MHz Type=RS41-SGP rdzTTGOsonde
PY3UEB-11U05500082022-12-06 00:04:00-29.9267-51.0234798913129Clb=12.7m/s t=-53.0C h=2.2% p=178.7hPa 403.001 MHz Type=RS41-SGP ser=U0550008 Radiosonde auto_rx v1.5.9
PU3XGS-11U05500082022-12-06 00:03:38-29.9276-51.0293819412973Clb=6.5m/s t=-51.7C h=2.2% p=183.0hPa 403.001 MHz Type=RS41-SGP ser=U0550008 Radiosonde By PU3XGS
PU3XGS-12U05500082022-12-06 00:03:33-29.9278-51.0306819812942Clb=6.4m/s p=183.9hPa t=-51.6C h=2.3% 403.001MHz Type=RS41-SGP rdzTTGOsonde
PY3UEB-11U05500082022-12-06 00:03:30-29.9279-51.0315819812923Clb=3.5m/s t=-51.5C h=2.2% p=184.4hPa 403.001 MHz Type=RS41-SGP ser=U0550008 Radiosonde auto_rx v1.5.9
PU3XGS-12U05500082022-12-06 00:03:01-29.9286-51.039878312732Clb=6.1m/s p=190.0hPa t=-50.7C h=2.6% 403.001MHz Type=RS41-SGP rdzTTGOsonde
PY3UEB-11U05500082022-12-06 00:03:00-29.9286-51.0397878512711Clb=11.0m/s t=-50.7C h=2.5% p=190.5hPa 403.001 MHz Type=RS41-SGP ser=U0550008 Radiosonde auto_rx v1.5.9
PU3XGS-11U05500082022-12-06 00:02:36-29.9284-51.0451957812564Clb=6.7m/s t=-49.7C h=2.5% p=194.8hPa 403.001 MHz Type=RS41-SGP ser=U0550008 Radiosonde By PU3XGS
PU3IKE-1U05500082022-12-06 00:02:30-29.9288-51.0498808112432Clb=7.2m/s t=-49.0C h=2.7% p=198.8hPa 403.001 MHz Type=RS41-SGP RSonde auto_rx v1.5.9
PU3IKE-1U05500082022-12-06 00:02:00-29.9305-51.0571708112224Clb=9.1m/s t=-48.1C h=2.6% p=205.3hPa 403.001 MHz Type=RS41-SGP RSonde auto_rx v1.5.9
PU3XGS-11U05500082022-12-06 00:01:34-29.9313-51.0593658312158Clb=5.4m/s t=-47.6C h=2.6% p=207.3hPa 403.001 MHz Type=RS41-SGP ser=U0550008 Radiosonde By PU3XGS
PU3XGS-12U05500082022-12-06 00:01:30-29.9316-51.0602698312130Clb=7.3m/s p=208.1hPa t=-47.3C h=2.5% 403.001MHz Type=RS41-SGP rdzTTGOsonde
PY3UEB-11U05500082022-12-06 00:01:00-29.9344-51.0671659111925Clb=4.6m/s t=-46.0C h=2.4% p=214.5hPa 403.001 MHz Type=RS41-SGP ser=U0550008 Radiosonde auto_rx v1.5.9
PU3XGS-12U05500082022-12-06 00:00:58-29.9344-51.0671669111925Clb=4.6m/s p=214.5hPa t=-46.0C h=2.4% 403.001MHz Type=RS41-SGP rdzTTGOsonde
PU3XGS-11U05500082022-12-06 00:00:32-29.9375-51.0732609611754Clb=8.9m/s t=-44.7C h=2.2% p=220.1hPa 403.001 MHz Type=RS41-SGP ser=U0550008 Radiosonde By PU3XGS
PY3UEB-11U05500082022-12-06 00:00:30-29.9377-51.0737619611740Clb=7.3m/s t=-44.5C h=2.3% p=220.6hPa 403.001 MHz Type=RS41-SGP ser=U0550008 Radiosonde auto_rx v1.5.9
PY3UEB-11U05500082022-12-06 00:00:00-29.9421-51.08135610711526Clb=7.0m/s t=-43.9C h=2.2% p=227.8hPa 403.001 MHz Type=RS41-SGP ser=U0550008 Radiosonde auto_rx v1.5.9
PU3IKE-1U05500082022-12-05 23:59:30-29.946-51.08856210611330Clb=8.7m/s t=-42.1C h=2.0% p=234.4hPa 403.001 MHz Type=RS41-SGP RSonde auto_rx v1.5.9
PY3UEB-11U05500082022-12-05 23:59:00-29.95-51.0976110911080Clb=5.4m/s t=-39.7C h=1.8% p=243.2hPa 403.001 MHz Type=RS41-SGP ser=U0550008 Radiosonde auto_rx v1.5.9
PY3UEB-11U05500082022-12-05 23:58:30-29.9534-51.1038628710876Clb=5.1m/s t=-38.7C h=1.9% p=250.5hPa 403.001 MHz Type=RS41-SGP ser=U0550008 Radiosonde auto_rx v1.5.9
PU3XGS-11U05500082022-12-05 23:58:28-29.9535-51.104608510868Clb=11.2m/s t=-38.7C h=1.9% p=250.8hPa 403.001 MHz Type=RS41-SGP ser=U0550008 Radiosonde By PU3XGS
PY3UEB-11U05500082022-12-05 23:58:00-29.9566-51.1105639110678Clb=9.5m/s t=-37.9C h=1.9% p=257.8hPa 403.001 MHz Type=RS41-SGP ser=U0550008 Radiosonde auto_rx v1.5.9
PU3IKE-1U05500082022-12-05 23:57:30-29.9597-51.1186410010479Clb=7.3m/s t=-36.9C h=2.0% p=265.4hPa 403.001 MHz Type=RS41-SGP RSonde auto_rx v1.5.9
PU3XGS-11U05500082022-12-05 23:57:26-29.9601-51.119639410451Clb=7.4m/s t=-36.8C h=2.0% p=266.5hPa 403.001 MHz Type=RS41-SGP ser=U0550008 Radiosonde By PU3XGS
PU3IKE-1U05500082022-12-05 23:57:00-29.9623-51.1252708710267Clb=7.7m/s t=-36.8C h=2.5% p=273.5hPa 403.001 MHz Type=RS41-SGP RSonde auto_rx v1.5.9
PU3XGS-11U05500082022-12-05 23:56:54-29.9626-51.1264738510227Clb=7.2m/s t=-36.5C h=2.5% p=275.1hPa 403.001 MHz Type=RS41-SGP ser=U0550008 Radiosonde By PU3XGS
PU3IKE-1U05500082022-12-05 23:56:30-29.9639-51.132777810049Clb=7.7m/s t=-35.4C h=2.3% p=282.0hPa 403.001 MHz Type=RS41-SGP RSonde auto_rx v1.5.9
PU3XGS-11U05500082022-12-05 23:56:24-29.9641-51.1333787610013Clb=7.9m/s t=-35.3C h=2.4% p=283.6hPa 403.001 MHz Type=RS41-SGP ser=U0550008 Radiosonde By PU3XGS
PU3IKE-1U05500082022-12-05 23:56:00-29.9648-51.13885549843Clb=6.4m/s t=-34.2C h=2.3% p=290.6hPa 403.001 MHz Type=RS41-SGP RSonde auto_rx v1.5.9
PU3XGS-11U05500082022-12-05 23:55:52-29.9649-51.139387709788Clb=9.5m/s t=-34.0C h=2.3% p=292.7hPa 403.001 MHz Type=RS41-SGP ser=U0550008 Radiosonde By PU3XGS
PU3IKE-1U05500082022-12-05 23:55:30-29.965-51.143890709634Clb=6.6m/s t=-33.4C h=2.4% p=299.5hPa 403.001 MHz Type=RS41-SGP RSonde auto_rx v1.5.9
PY3UEB-11U05500082022-12-05 23:55:00-29.9649-51.149997639421Clb=7.1m/s t=-31.9C h=2.1% p=308.4hPa 403.001 MHz Type=RS41-SGP ser=U0550008 Radiosonde auto_rx v1.5.9
PU3XGS-11U05500082022-12-05 23:54:50-29.965-51.151293679375Clb=5.9m/s t=-31.6C h=2.0% p=310.6hPa 403.001 MHz Type=RS41-SGP ser=U0550008 Radiosonde By PU3XGS
PU3IKE-1U05500082022-12-05 23:54:30-29.9652-51.15577699240Clb=6.2m/s t=-30.6C h=2.0% p=316.6hPa 403.001 MHz Type=RS41-SGP RSonde auto_rx v1.5.9
PY3UEB-11U05500082022-12-05 23:54:00-29.9656-51.160690639012Clb=6.4m/s t=-28.8C h=1.8% p=326.6hPa 403.001 MHz Type=RS41-SGP ser=U0550008 Radiosonde auto_rx v1.5.9
PU3XGS-11U05500082022-12-05 23:53:48-29.9655-51.1622102638964Clb=6.2m/s t=-28.5C h=1.9% p=328.8hPa 403.001 MHz Type=RS41-SGP ser=U0550008 Radiosonde By PU3XGS
PU3IKE-1U05500082022-12-05 23:53:30-29.9654-51.165292488858Clb=6.4m/s t=-28.0C h=2.0% p=333.4hPa 403.001 MHz Type=RS41-SGP RSonde auto_rx v1.5.9
PU3IKE-1U05500082022-12-05 23:53:00-29.9657-51.169877618681Clb=5.4m/s t=-27.1C h=2.1% p=341.7hPa 403.001 MHz Type=RS41-SGP RSonde auto_rx v1.5.9
PU3XGS-11U05500082022-12-05 23:52:46-29.9658-51.17288658601Clb=4.8m/s t=-26.6C h=2.1% p=345.6hPa 403.001 MHz Type=RS41-SGP ser=U0550008 Radiosonde By PU3XGS
PU3IKE-1U05500082022-12-05 23:52:30-29.9656-51.174684618515Clb=6.1m/s t=-26.2C h=2.1% p=350.0hPa 403.001 MHz Type=RS41-SGP RSonde auto_rx v1.5.9
PU3IKE-1U05500082022-12-05 23:52:00-29.9649-51.179695658331Clb=9.0m/s t=-25.2C h=2.2% p=359.1hPa 403.001 MHz Type=RS41-SGP RSonde auto_rx v1.5.9
PU3XGS-12U05500082022-12-05 23:51:49-29.9645-51.181493678270Clb=7.9m/s p=362.2hPa t=-25.6C h=2.4% 403.001MHz Type=RS41-SGP rdzTTGOsonde
PU3XGS-11U05500082022-12-05 23:51:44-29.9643-51.1825104658228Clb=8.8m/s t=-25.5C h=2.4% p=364.3hPa 403.001 MHz Type=RS41-SGP ser=U0550008 Radiosonde By PU3XGS
PU3IKE-1U05500082022-12-05 23:51:30-29.9638-51.185793678130Clb=8.0m/s t=-25.4C h=2.9% p=369.0hPa 403.001 MHz Type=RS41-SGP RSonde auto_rx v1.5.9
PU3XGS-12U05500082022-12-05 23:51:18-29.9635-51.1872107528080Clb=5.7m/s p=371.5hPa t=-25.2C h=3.6% 403.001MHz Type=RS41-SGP rdzTTGOsonde
PU3IKE-1U05500082022-12-05 23:51:00-29.9629-51.1905103807972Clb=9.4m/s t=-24.3C h=3.2% p=377.0hPa 403.001 MHz Type=RS41-SGP RSonde auto_rx v1.5.9
PU3XGS-11U05500082022-12-05 23:50:42-29.9622-51.193100577857Clb=10.2m/s t=-23.6C h=3.5% p=383.3hPa 403.001 MHz Type=RS41-SGP ser=U0550008 Radiosonde By PU3XGS
PU3IKE-1U05500082022-12-05 23:50:30-29.9619-51.1952117617779Clb=8.8m/s t=-23.0C h=3.5% p=387.4hPa 403.001 MHz Type=RS41-SGP RSonde auto_rx v1.5.9
PU3IKE-1U05500082022-12-05 23:50:00-29.9614-51.200187637585Clb=4.1m/s t=-21.6C h=3.2% p=397.5hPa 403.001 MHz Type=RS41-SGP RSonde auto_rx v1.5.9
PU3XGS-11U05500082022-12-05 23:49:40-29.9613-51.203391697449Clb=5.7m/s t=-20.6C h=3.2% p=404.9hPa 403.001 MHz Type=RS41-SGP ser=U0550008 Radiosonde By PU3XGS
PU3IKE-1U05500082022-12-05 23:49:30-29.9612-51.204879447391Clb=4.8m/s t=-20.0C h=3.2% p=408.0hPa 403.001 MHz Type=RS41-SGP RSonde auto_rx v1.5.9
PU3IKE-1U05500082022-12-05 23:49:00-29.9614-51.209975547224Clb=7.4m/s t=-18.9C h=3.5% p=417.4hPa 403.001 MHz Type=RS41-SGP RSonde auto_rx v1.5.9
PU3XGS-11U05500082022-12-05 23:48:38-29.9617-51.213199507094Clb=5.5m/s t=-17.9C h=3.6% p=424.7hPa 403.001 MHz Type=RS41-SGP ser=U0550008 Radiosonde By PU3XGS
PY3UEB-11U05500082022-12-05 23:48:30-29.9617-51.214177287045Clb=6.9m/s t=-17.6C h=3.8% p=427.5hPa 403.001 MHz Type=RS41-SGP ser=U0550008 Radiosonde auto_rx v1.5.9
PU3XGS-12U05500082022-12-05 23:48:20-29.9618-51.215886336965Clb=3.4m/s p=432.1hPa t=-17.0C h=3.8% 403.001MHz Type=RS41-SGP rdzTTGOsonde
PY3UEB-11U05500082022-12-05 23:48:00-29.9618-51.217581416880Clb=6.4m/s t=-16.4C h=3.9% p=437.0hPa 403.001 MHz Type=RS41-SGP ser=U0550008 Radiosonde auto_rx v1.5.9
PU3XGS-12U05500082022-12-05 23:47:44-29.9619-51.219272336787Clb=5.4m/s p=442.4hPa t=-15.8C h=3.6% 403.001MHz Type=RS41-SGP rdzTTGOsonde
PY3UEB-11U05500082022-12-05 23:47:30-29.962-51.220788316704Clb=7.9m/s t=-15.1C h=3.4% p=447.2hPa 403.001 MHz Type=RS41-SGP ser=U0550008 Radiosonde auto_rx v1.5.9
PU3XGS-12U05500082022-12-05 23:47:13-29.9619-51.222103306593Clb=7.3m/s p=453.7hPa t=-14.2C h=3.8% 403.001MHz Type=RS41-SGP rdzTTGOsonde
PU3XGS-11U05500082022-12-05 23:47:04-29.9618-51.2227110286544Clb=5.9m/s t=-14.2C h=5.9% p=456.6hPa 403.001 MHz Type=RS41-SGP ser=U0550008 Radiosonde By PU3XGS
PU3IKE-1U05500082022-12-05 23:47:00-29.9618-51.22366206509Clb=8.9m/s t=-14.0C h=6.5% p=458.6hPa 403.001 MHz Type=RS41-SGP RSonde auto_rx v1.5.9
PU3XGS-12U05500082022-12-05 23:46:50-29.9619-51.223843176411Clb=5.0m/s p=464.8hPa t=-13.2C h=8.4% 403.001MHz Type=RS41-SGP rdzTTGOsonde
PU3IKE-1U05500082022-12-05 23:46:30-29.9621-51.224495196318Clb=5.2m/s t=-12.5C h=9.5% p=470.5hPa 403.001 MHz Type=RS41-SGP RSonde auto_rx v1.5.9
PU3XGS-11U05500082022-12-05 23:46:02-29.9625-51.226274206138Clb=10.0m/s t=-11.1C h=9.6% p=481.7hPa 403.001 MHz Type=RS41-SGP ser=U0550008 Radiosonde By PU3XGS
PY3UEB-11U05500082022-12-05 23:46:00-29.9626-51.226338116121Clb=7.8m/s t=-10.9C h=9.8% p=482.8hPa 403.001 MHz Type=RS41-SGP ser=U0550008 Radiosonde auto_rx v1.5.9
PU3XGS-11U05500082022-12-05 23:45:32-29.9633-51.227437175944Clb=9.9m/s t=-9.5C h=9.6% p=493.6hPa 403.001 MHz Type=RS41-SGP ser=U0550008 Radiosonde By PU3XGS
PY3UEB-11U05500082022-12-05 23:45:30-29.9634-51.227559205927Clb=8.9m/s t=-9.3C h=9.5% p=494.9hPa 403.001 MHz Type=RS41-SGP ser=U0550008 Radiosonde auto_rx v1.5.9
PY3UEB-11U05500082022-12-05 23:45:00-29.9652-51.228433355730Clb=10.4m/s t=-7.5C h=8.5% p=507.6hPa 403.001 MHz Type=RS41-SGP ser=U0550008 Radiosonde auto_rx v1.5.9
PU3XGS-12U05500082022-12-05 23:44:58-29.9663-51.22944225589Clb=4.3m/s p=516.8hPa t=-6.3C h=7.2% 403.001MHz Type=RS41-SGP rdzTTGOsonde
PU3IKE-1U05500082022-12-05 23:44:30-29.9669-51.229121355516Clb=5.3m/s t=-5.7C h=5.3% p=521.7hPa 403.001 MHz Type=RS41-SGP RSonde auto_rx v1.5.9
PU3XGS-12U05500082022-12-05 23:44:13-29.968-51.22955195390Clb=6.3m/s p=530.2hPa t=-5.3C h=10.7% 403.001MHz Type=RS41-SGP rdzTTGOsonde
PU3IKE-1U05500082022-12-05 23:44:00-29.9683-51.229526075299Clb=7.7m/s t=-5.3C h=-1.0% p=-1.0hPa 403.001 MHz Type=RS41-SGP RSonde auto_rx v1.5.9
PU3XGS-11U05500082022-12-05 23:43:58-29.9683-51.229528195292Clb=6.6m/s t=-5.4C h=19.1% p=537.1hPa 403.001 MHz Type=RS41-SGP ser=U0550008 Radiosonde By PU3XGS
PU3XGS-12U05500082022-12-05 23:43:39-29.9692-51.2289339305165Clb=6.5m/s p=545.4hPa t=-4.4C h=18.7% 403.001MHz Type=RS41-SGP rdzTTGOsonde
PU3IKE-1U05500082022-12-05 23:43:30-29.9697-51.2285342305097Clb=8.4m/s t=-3.7C h=-1.0% p=-1.0hPa 403.001 MHz Type=RS41-SGP RSonde auto_rx v1.5.9
PU3XGS-12U05500082022-12-05 23:43:08-29.9708-51.2279356204951Clb=6.4m/s p=560.3hPa t=-2.3C h=16.7% 403.001MHz Type=RS41-SGP rdzTTGOsonde
PY3UEB-11U05500082022-12-05 23:43:00-29.9714-51.2278358204892Clb=4.8m/s t=-1.8C h=14.3% p=564.6hPa 403.001 MHz Type=RS41-SGP ser=U0550008 Radiosonde auto_rx v1.5.9
PU3XGS-11U05500082022-12-05 23:42:56-29.9717-51.2277330394868Clb=6.3m/s t=-1.7C h=13.2% p=566.2hPa 403.001 MHz Type=RS41-SGP ser=U0550008 Radiosonde By PU3XGS
PU3XGS-12U05500082022-12-05 23:42:37-29.9726-51.2274313204755Clb=8.5m/s p=574.3hPa t=-0.8C h=13.9% 403.001MHz Type=RS41-SGP rdzTTGOsonde
PY3UEB-11U05500082022-12-05 23:42:30-29.9731-51.227339304691Clb=5.8m/s t=-0.3C h=13.7% p=579.4hPa 403.001 MHz Type=RS41-SGP ser=U0550008 Radiosonde auto_rx v1.5.9
PU3XGS-12U05500082022-12-05 23:42:28-29.9742-51.226513194536Clb=7.6m/s p=590.0hPa t=0.5C h=22.4% 403.001MHz Type=RS41-SGP rdzTTGOsonde
PY3UEB-11U05500082022-12-05 23:42:00-29.9745-51.2262325264481Clb=7.2m/s t=0.9C h=24.5% p=594.1hPa 403.001 MHz Type=RS41-SGP ser=U0550008 Radiosonde auto_rx v1.5.9
PU3XGS-11U05500082022-12-05 23:41:54-29.9747-51.226235694441Clb=6.9m/s t=1.1C h=25.8% p=597.1hPa 403.001 MHz Type=RS41-SGP ser=U0550008 Radiosonde By PU3XGS
PY3UEB-11U05500082022-12-05 23:41:30-29.9757-51.2255304244265Clb=6.5m/s t=1.9C h=34.9% p=610.3hPa 403.001 MHz Type=RS41-SGP ser=U0550008 Radiosonde auto_rx v1.5.9
PY3UEB-11U05500082022-12-05 23:41:00-29.9767-51.2239313314065Clb=5.6m/s t=3.7C h=30.1% p=625.6hPa 403.001 MHz Type=RS41-SGP ser=U0550008 Radiosonde auto_rx v1.5.9
PU3XGS-11U05500082022-12-05 23:40:52-29.977-51.2233285154007Clb=8.0m/s t=4.1C h=31.1% p=629.9hPa 403.001 MHz Type=RS41-SGP ser=U0550008 Radiosonde By PU3XGS
PU3XGS-12U05500082022-12-05 23:40:49-29.9774-51.2226318203896Clb=9.0m/s p=638.5hPa t=4.8C h=30.7% 403.001MHz Type=RS41-SGP rdzTTGOsonde
PY3UEB-11U05500082022-12-05 23:40:30-29.9777-51.2223298303847Clb=7.9m/s t=5.1C h=32.1% p=642.3hPa 403.001 MHz Type=RS41-SGP ser=U0550008 Radiosonde auto_rx v1.5.9
PU3XGS-11U05500082022-12-05 23:40:22-29.978-51.2219318173785Clb=6.9m/s t=5.5C h=32.4% p=647.3hPa 403.001 MHz Type=RS41-SGP ser=U0550008 Radiosonde By PU3XGS
PU3XGS-12U05500082022-12-05 23:40:05-29.9787-51.2213335243676Clb=6.4m/s p=655.8hPa t=6.3C h=29.5% 403.001MHz Type=RS41-SGP rdzTTGOsonde
PY3UEB-11U05500082022-12-05 23:40:00-29.9788-51.2211280193645Clb=6.6m/s t=6.5C h=29.2% p=658.3hPa 403.001 MHz Type=RS41-SGP ser=U0550008 Radiosonde auto_rx v1.5.9
PU3XGS-11U05500082022-12-05 23:39:50-29.9792-51.2208325223577Clb=6.1m/s t=7.1C h=28.9% p=663.9hPa 403.001 MHz Type=RS41-SGP ser=U0550008 Radiosonde By PU3XGS
PU3XGS-12U05500082022-12-05 23:39:33-29.9798-51.2203319333474Clb=8.4m/s p=672.4hPa t=8.2C h=26.8% 403.001MHz Type=RS41-SGP rdzTTGOsonde
PY3UEB-11U05500082022-12-05 23:39:30-29.98-51.2201325113441Clb=5.5m/s t=8.4C h=22.6% p=674.9hPa 403.001 MHz Type=RS41-SGP ser=U0550008 Radiosonde auto_rx v1.5.9
PU3XGS-12U05500082022-12-05 23:39:03-29.9811-51.219298203284Clb=5.7m/s p=687.8hPa t=9.0C h=33.7% 403.001MHz Type=RS41-SGP rdzTTGOsonde
PY3UEB-11U05500082022-12-05 23:39:00-29.9812-51.2188322243258Clb=8.1m/s t=9.2C h=32.4% p=689.7hPa 403.001 MHz Type=RS41-SGP ser=U0550008 Radiosonde auto_rx v1.5.9
PU3XGS-11U05500082022-12-05 23:38:48-29.9817-51.2184324223174Clb=8.7m/s t=10.0C h=18.1% p=696.8hPa 403.001 MHz Type=RS41-SGP ser=U0550008 Radiosonde By PU3XGS
PU3XGS-12U05500082022-12-05 23:38:32-29.9824-51.2177320203079Clb=6.5m/s p=704.8hPa t=10.6C h=5.4% 403.001MHz Type=RS41-SGP rdzTTGOsonde
PY3UEB-11U05500082022-12-05 23:38:30-29.9825-51.2175278203049Clb=6.2m/s t=10.8C h=5.1% p=707.2hPa 403.001 MHz Type=RS41-SGP ser=U0550008 Radiosonde auto_rx v1.5.9
PU3XGS-11U05500082022-12-05 23:38:17-29.9829-51.2167303372963Clb=7.8m/s t=11.3C h=7.2% p=714.6hPa 403.001 MHz Type=RS41-SGP ser=U0550008 Radiosonde By PU3XGS
PU3XGS-12U05500082022-12-05 23:38:02-29.9835-51.2159307312870Clb=7.4m/s p=722.6hPa t=11.7C h=2.4% 403.001MHz Type=RS41-SGP rdzTTGOsonde
PY3UEB-11U05500082022-12-05 23:38:00-29.9836-51.2157303202848Clb=7.7m/s t=11.7C h=0.9% p=724.4hPa 403.001 MHz Type=RS41-SGP ser=U0550008 Radiosonde auto_rx v1.5.9
PU3XGS-11U05500082022-12-05 23:37:46-29.9841-51.2149301332759Clb=7.4m/s t=11.2C h=7.3% p=732.1hPa 403.001 MHz Type=RS41-SGP ser=U0550008 Radiosonde By PU3XGS
PY3UEB-11U05500082022-12-05 23:37:30-29.9848-51.2138296242635Clb=8.3m/s t=11.8C h=15.9% p=742.9hPa 403.001 MHz Type=RS41-SGP ser=U0550008 Radiosonde auto_rx v1.5.9
PU3XGS-11U05500082022-12-05 23:37:15-29.9854-51.2127294372534Clb=6.2m/s t=12.4C h=19.2% p=752.2hPa 403.001 MHz Type=RS41-SGP ser=U0550008 Radiosonde By PU3XGS
PY3UEB-11U05500082022-12-05 23:37:00-29.986-51.2113303302429Clb=7.1m/s t=12.9C h=28.9% p=761.7hPa 403.001 MHz Type=RS41-SGP ser=U0550008 Radiosonde auto_rx v1.5.9
PU3XGS-11U05500082022-12-05 23:36:43-29.9868-51.2102314352321Clb=6.8m/s t=13.7C h=24.9% p=772.1hPa 403.001 MHz Type=RS41-SGP ser=U0550008 Radiosonde By PU3XGS
PU3XGS-12U05500082022-12-05 23:36:41-29.9874-51.2092307352233Clb=7.4m/s p=780.1hPa t=13.9C h=40.1% 403.001MHz Type=RS41-SGP rdzTTGOsonde
PY3UEB-11U05500082022-12-05 23:36:30-29.9874-51.2091304312225Clb=8.1m/s t=13.8C h=42.2% p=780.8hPa 403.001 MHz Type=RS41-SGP ser=U0550008 Radiosonde auto_rx v1.5.9
PU3XGS-11U05500082022-12-05 23:36:12-29.9885-51.2078313312103Clb=7.5m/s t=13.9C h=52.1% p=792.2hPa 403.001 MHz Type=RS41-SGP ser=U0550008 Radiosonde By PU3XGS
PY3UEB-11U05500082022-12-05 23:36:00-29.9891-51.2069307312017Clb=5.3m/s t=14.1C h=-1.0% p=800.2hPa 403.001 MHz Type=RS41-SGP ser=U0550008 Radiosonde auto_rx v1.5.9
PU3XGS-12U05500082022-12-05 23:35:59-29.9891-51.2069308312017Clb=5.3m/s p=800.2hPa t=14.1C h=53.8% 403.001MHz Type=RS41-SGP rdzTTGOsonde
PU3XGS-11U05500082022-12-05 23:35:41-29.9901-51.2058300301881Clb=6.8m/s t=14.7C h=58.2% p=813.1hPa 403.001 MHz Type=RS41-SGP ser=U0550008 Radiosonde By PU3XGS
PY3UEB-11U05500082022-12-05 23:35:30-29.9907-51.205316331803Clb=7.9m/s t=14.0C h=-1.0% p=820.4hPa 403.001 MHz Type=RS41-SGP ser=U0550008 Radiosonde auto_rx v1.5.9
PU3XGS-12U05500082022-12-05 23:35:28-29.9908-51.2049315311795Clb=8.2m/s p=821.1hPa t=14.0C h=69.4% 403.001MHz Type=RS41-SGP rdzTTGOsonde
PU3XGS-11U05500082022-12-05 23:35:10-29.9918-51.2039314261659Clb=6.1m/s t=14.4C h=77.1% p=834.4hPa 403.001 MHz Type=RS41-SGP ser=U0550008 Radiosonde By PU3XGS
PY3UEB-11U05500082022-12-05 23:35:00-29.9921-51.2035317191584Clb=7.9m/s t=14.8C h=-1.0% p=842.0hPa 403.001 MHz Type=RS41-SGP ser=U0550008 Radiosonde auto_rx v1.5.9
PU3XGS-12U05500082022-12-05 23:34:57-29.9922-51.2034299191570Clb=7.1m/s p=843.4hPa t=14.9C h=75.9% 403.001MHz Type=RS41-SGP rdzTTGOsonde
PU3XGS-11U05500082022-12-05 23:34:39-29.9926-51.2026302201441Clb=4.8m/s t=16.2C h=61.8% p=856.3hPa 403.001 MHz Type=RS41-SGP ser=U0550008 Radiosonde By PU3XGS
PY3UEB-11U05500082022-12-05 23:34:30-29.993-51.202291171357Clb=7.7m/s t=17.0C h=-1.0% p=864.8hPa 403.001 MHz Type=RS41-SGP ser=U0550008 Radiosonde auto_rx v1.5.9
PU3XGS-12U05500082022-12-05 23:34:26-29.993-51.202292191357Clb=7.7m/s p=864.8hPa t=17.0C h=52.1% 403.001MHz Type=RS41-SGP rdzTTGOsonde
PU3XGS-11U05500082022-12-05 23:34:08-29.9934-51.201290241228Clb=6.3m/s t=-273.0C h=-1.0% p=877.9hPa 403.001 MHz Type=RS41-SGP ser=U0550008 Radiosonde By PU3XGS
PY3UEB-11U05500082022-12-05 23:34:00-29.9935-51.2005289261172Clb=8.2m/s t=-273.0C h=-1.0% p=883.5hPa 403.001 MHz Type=RS41-SGP ser=U0550008 Radiosonde auto_rx v1.5.9
PU3XGS-12U05500082022-12-05 23:33:55-29.9936-51.2003303221152Clb=5.6m/s p=885.8hPa t=16.4C h=71.7% 403.001MHz Type=RS41-SGP rdzTTGOsonde
PU3XGS-12U05500082022-12-05 23:33:37-29.9951-51.197731544953Clb=7.3m/s p=906.5hPa t=17.1C 403.001MHz Type=RS41-SGP rdzTTGOsonde
PU3XGS-12U05500082022-12-05 23:33:13-29.9967-51.194829643757Clb=8.3m/s 403.001MHz Type=RS41 rdzTTGOsonde